<?xml version="1.0" encoding="UTF-8" standalone="no" ?>
<gpx xmlns="http://www.topografix.com/GPX/1/1" xmlns:xsi="http://www.w3.org/2001/XMLSchema-instance" xsi:schemaLocation="http://www.topografix.com/GPX/1/1 http://www.topografix.com/GPX/1/1/gpx.xsd" version="1.1" creator="VisuGPX - https://www.visugpx.com">
  <metadata>
    <name>Petite balade au pas </name>
    <desc><![CDATA[Petite balade avec Claire, remise en route du cheval et de sa cavalière^^... et apprentissage de la petite chienne  !]]></desc>
  </metadata>
  <trk>
    <name><![CDATA[Untitled]]></name>
    <trkseg>
      <trkpt lat="48.70614" lon="1.75734">
        <ele>178</ele>
        <time>2012-01-12T08:47:35.000Z</time>
      </trkpt>
      <trkpt lat="48.70613" lon="1.75733">
        <ele>178</ele>
        <time>2012-01-12T08:47:36.000Z</time>
      </trkpt>
      <trkpt lat="48.70609" lon="1.7573">
        <ele>178.60000610352</ele>
        <time>2012-01-12T08:47:41.000Z</time>
      </trkpt>
      <trkpt lat="48.70602" lon="1.75724">
        <ele>179.39999389648</ele>
        <time>2012-01-12T08:47:53.000Z</time>
      </trkpt>
      <trkpt lat="48.70601" lon="1.75723">
        <ele>179.60000610352</ele>
        <time>2012-01-12T08:47:57.000Z</time>
      </trkpt>
      <trkpt lat="48.70598" lon="1.7573">
        <ele>179.39999389648</ele>
        <time>2012-01-12T08:48:05.000Z</time>
      </trkpt>
      <trkpt lat="48.70593" lon="1.75737">
        <ele>179.19999694824</ele>
        <time>2012-01-12T08:48:11.000Z</time>
      </trkpt>
      <trkpt lat="48.70591" lon="1.75742">
        <ele>179</ele>
        <time>2012-01-12T08:48:15.000Z</time>
      </trkpt>
      <trkpt lat="48.7059" lon="1.75743">
        <ele>179</ele>
        <time>2012-01-12T08:48:16.000Z</time>
      </trkpt>
      <trkpt lat="48.70596" lon="1.75761">
        <ele>177.80000305176</ele>
        <time>2012-01-12T08:48:23.000Z</time>
      </trkpt>
      <trkpt lat="48.70593" lon="1.75775">
        <ele>177.60000610352</ele>
        <time>2012-01-12T08:48:31.000Z</time>
      </trkpt>
      <trkpt lat="48.70588" lon="1.75785">
        <ele>177.60000610352</ele>
        <time>2012-01-12T08:48:38.000Z</time>
      </trkpt>
      <trkpt lat="48.70585" lon="1.75789">
        <ele>177.60000610352</ele>
        <time>2012-01-12T08:48:42.000Z</time>
      </trkpt>
      <trkpt lat="48.70583" lon="1.75788">
        <ele>177.60000610352</ele>
        <time>2012-01-12T08:48:45.000Z</time>
      </trkpt>
      <trkpt lat="48.70584" lon="1.75787">
        <ele>177.60000610352</ele>
        <time>2012-01-12T08:48:50.000Z</time>
      </trkpt>
      <trkpt lat="48.70578" lon="1.75797">
        <ele>177.80000305176</ele>
        <time>2012-01-12T08:49:00.000Z</time>
      </trkpt>
      <trkpt lat="48.70575" lon="1.75801">
        <ele>177.80000305176</ele>
        <time>2012-01-12T08:49:02.000Z</time>
      </trkpt>
      <trkpt lat="48.70568" lon="1.75816">
        <ele>178</ele>
        <time>2012-01-12T08:49:12.000Z</time>
      </trkpt>
      <trkpt lat="48.70562" lon="1.75828">
        <ele>178.19999694824</ele>
        <time>2012-01-12T08:49:20.000Z</time>
      </trkpt>
      <trkpt lat="48.70556" lon="1.75839">
        <ele>178.60000610352</ele>
        <time>2012-01-12T08:49:27.000Z</time>
      </trkpt>
      <trkpt lat="48.70549" lon="1.75851">
        <ele>179.19999694824</ele>
        <time>2012-01-12T08:49:35.000Z</time>
      </trkpt>
      <trkpt lat="48.70545" lon="1.75862">
        <ele>179.39999389648</ele>
        <time>2012-01-12T08:49:41.000Z</time>
      </trkpt>
      <trkpt lat="48.70538" lon="1.75879">
        <ele>179.80000305176</ele>
        <time>2012-01-12T08:49:50.000Z</time>
      </trkpt>
      <trkpt lat="48.70531" lon="1.75891">
        <ele>180.19999694824</ele>
        <time>2012-01-12T08:49:57.000Z</time>
      </trkpt>
      <trkpt lat="48.70525" lon="1.759">
        <ele>180.39999389648</ele>
        <time>2012-01-12T08:50:04.000Z</time>
      </trkpt>
      <trkpt lat="48.70524" lon="1.75908">
        <ele>180.39999389648</ele>
        <time>2012-01-12T08:50:10.000Z</time>
      </trkpt>
      <trkpt lat="48.70515" lon="1.75908">
        <ele>181.19999694824</ele>
        <time>2012-01-12T08:50:19.000Z</time>
      </trkpt>
      <trkpt lat="48.70513" lon="1.75911">
        <ele>181.19999694824</ele>
        <time>2012-01-12T08:50:21.000Z</time>
      </trkpt>
      <trkpt lat="48.70505" lon="1.7592">
        <ele>181.39999389648</ele>
        <time>2012-01-12T08:50:28.000Z</time>
      </trkpt>
      <trkpt lat="48.70503" lon="1.75926">
        <ele>181.39999389648</ele>
        <time>2012-01-12T08:50:34.000Z</time>
      </trkpt>
      <trkpt lat="48.70501" lon="1.7593">
        <ele>181.19999694824</ele>
        <time>2012-01-12T08:50:39.000Z</time>
      </trkpt>
      <trkpt lat="48.70497" lon="1.75933">
        <ele>181.19999694824</ele>
        <time>2012-01-12T08:50:44.000Z</time>
      </trkpt>
      <trkpt lat="48.70493" lon="1.75935">
        <ele>181.19999694824</ele>
        <time>2012-01-12T08:50:50.000Z</time>
      </trkpt>
      <trkpt lat="48.70489" lon="1.75941">
        <ele>181</ele>
        <time>2012-01-12T08:50:56.000Z</time>
      </trkpt>
      <trkpt lat="48.70491" lon="1.75942">
        <ele>181</ele>
        <time>2012-01-12T08:51:02.000Z</time>
      </trkpt>
      <trkpt lat="48.70485" lon="1.75949">
        <ele>180.80000305176</ele>
        <time>2012-01-12T08:51:09.000Z</time>
      </trkpt>
      <trkpt lat="48.70481" lon="1.75957">
        <ele>180.60000610352</ele>
        <time>2012-01-12T08:51:14.000Z</time>
      </trkpt>
      <trkpt lat="48.70475" lon="1.75969">
        <ele>180.19999694824</ele>
        <time>2012-01-12T08:51:22.000Z</time>
      </trkpt>
      <trkpt lat="48.70474" lon="1.7597">
        <ele>180.19999694824</ele>
        <time>2012-01-12T08:51:23.000Z</time>
      </trkpt>
      <trkpt lat="48.70473" lon="1.75977">
        <ele>179.80000305176</ele>
        <time>2012-01-12T08:51:27.000Z</time>
      </trkpt>
      <trkpt lat="48.70471" lon="1.75982">
        <ele>179.80000305176</ele>
        <time>2012-01-12T08:51:33.000Z</time>
      </trkpt>
      <trkpt lat="48.70471" lon="1.75982">
        <ele>179.80000305176</ele>
        <time>2012-01-12T08:51:34.000Z</time>
      </trkpt>
      <trkpt lat="48.7047" lon="1.75987">
        <ele>179.60000610352</ele>
        <time>2012-01-12T08:51:44.000Z</time>
      </trkpt>
      <trkpt lat="48.70468" lon="1.75997">
        <ele>179.19999694824</ele>
        <time>2012-01-12T08:51:48.000Z</time>
      </trkpt>
      <trkpt lat="48.70467" lon="1.76">
        <ele>179.19999694824</ele>
        <time>2012-01-12T08:51:50.000Z</time>
      </trkpt>
      <trkpt lat="48.70468" lon="1.76009">
        <ele>178.60000610352</ele>
        <time>2012-01-12T08:51:55.000Z</time>
      </trkpt>
      <trkpt lat="48.70467" lon="1.76015">
        <ele>178.39999389648</ele>
        <time>2012-01-12T08:51:59.000Z</time>
      </trkpt>
      <trkpt lat="48.70464" lon="1.76028">
        <ele>177.80000305176</ele>
        <time>2012-01-12T08:52:06.000Z</time>
      </trkpt>
      <trkpt lat="48.70462" lon="1.76033">
        <ele>177.60000610352</ele>
        <time>2012-01-12T08:52:10.000Z</time>
      </trkpt>
      <trkpt lat="48.7046" lon="1.76041">
        <ele>177.19999694824</ele>
        <time>2012-01-12T08:52:15.000Z</time>
      </trkpt>
      <trkpt lat="48.7046" lon="1.76049">
        <ele>176.80000305176</ele>
        <time>2012-01-12T08:52:19.000Z</time>
      </trkpt>
      <trkpt lat="48.70457" lon="1.76056">
        <ele>176.60000610352</ele>
        <time>2012-01-12T08:52:24.000Z</time>
      </trkpt>
      <trkpt lat="48.70455" lon="1.76064">
        <ele>176.19999694824</ele>
        <time>2012-01-12T08:52:30.000Z</time>
      </trkpt>
      <trkpt lat="48.70453" lon="1.76072">
        <ele>175.80000305176</ele>
        <time>2012-01-12T08:52:36.000Z</time>
      </trkpt>
      <trkpt lat="48.70452" lon="1.7608">
        <ele>175.60000610352</ele>
        <time>2012-01-12T08:52:41.000Z</time>
      </trkpt>
      <trkpt lat="48.7045" lon="1.76085">
        <ele>175.39999389648</ele>
        <time>2012-01-12T08:52:44.000Z</time>
      </trkpt>
      <trkpt lat="48.70449" lon="1.76091">
        <ele>175.39999389648</ele>
        <time>2012-01-12T08:52:49.000Z</time>
      </trkpt>
      <trkpt lat="48.70447" lon="1.76102">
        <ele>175.39999389648</ele>
        <time>2012-01-12T08:52:56.000Z</time>
      </trkpt>
      <trkpt lat="48.70444" lon="1.76109">
        <ele>175.39999389648</ele>
        <time>2012-01-12T08:53:02.000Z</time>
      </trkpt>
      <trkpt lat="48.70443" lon="1.76116">
        <ele>175.39999389648</ele>
        <time>2012-01-12T08:53:07.000Z</time>
      </trkpt>
      <trkpt lat="48.70443" lon="1.76121">
        <ele>175.19999694824</ele>
        <time>2012-01-12T08:53:12.000Z</time>
      </trkpt>
      <trkpt lat="48.70443" lon="1.76123">
        <ele>175.19999694824</ele>
        <time>2012-01-12T08:53:17.000Z</time>
      </trkpt>
      <trkpt lat="48.70439" lon="1.76121">
        <ele>175.39999389648</ele>
        <time>2012-01-12T08:53:24.000Z</time>
      </trkpt>
      <trkpt lat="48.70436" lon="1.76119">
        <ele>175.60000610352</ele>
        <time>2012-01-12T08:53:56.000Z</time>
      </trkpt>
      <trkpt lat="48.70436" lon="1.76125">
        <ele>175.60000610352</ele>
        <time>2012-01-12T08:54:00.000Z</time>
      </trkpt>
      <trkpt lat="48.70441" lon="1.76134">
        <ele>175.19999694824</ele>
        <time>2012-01-12T08:54:04.000Z</time>
      </trkpt>
      <trkpt lat="48.70441" lon="1.76148">
        <ele>175</ele>
        <time>2012-01-12T08:54:10.000Z</time>
      </trkpt>
      <trkpt lat="48.70442" lon="1.7615">
        <ele>175</ele>
        <time>2012-01-12T08:54:12.000Z</time>
      </trkpt>
      <trkpt lat="48.70444" lon="1.76158">
        <ele>174.80000305176</ele>
        <time>2012-01-12T08:54:16.000Z</time>
      </trkpt>
      <trkpt lat="48.70447" lon="1.76168">
        <ele>174.60000610352</ele>
        <time>2012-01-12T08:54:21.000Z</time>
      </trkpt>
      <trkpt lat="48.7045" lon="1.76179">
        <ele>174</ele>
        <time>2012-01-12T08:54:27.000Z</time>
      </trkpt>
      <trkpt lat="48.70452" lon="1.76191">
        <ele>173.80000305176</ele>
        <time>2012-01-12T08:54:33.000Z</time>
      </trkpt>
      <trkpt lat="48.70453" lon="1.762">
        <ele>173.39999389648</ele>
        <time>2012-01-12T08:54:37.000Z</time>
      </trkpt>
      <trkpt lat="48.70452" lon="1.76203">
        <ele>173.39999389648</ele>
        <time>2012-01-12T08:54:39.000Z</time>
      </trkpt>
      <trkpt lat="48.70453" lon="1.76213">
        <ele>173.19999694824</ele>
        <time>2012-01-12T08:54:44.000Z</time>
      </trkpt>
      <trkpt lat="48.70452" lon="1.76216">
        <ele>173.19999694824</ele>
        <time>2012-01-12T08:54:45.000Z</time>
      </trkpt>
      <trkpt lat="48.70451" lon="1.76229">
        <ele>172.80000305176</ele>
        <time>2012-01-12T08:54:51.000Z</time>
      </trkpt>
      <trkpt lat="48.70448" lon="1.76242">
        <ele>172.60000610352</ele>
        <time>2012-01-12T08:54:58.000Z</time>
      </trkpt>
      <trkpt lat="48.70444" lon="1.76247">
        <ele>172.80000305176</ele>
        <time>2012-01-12T08:55:02.000Z</time>
      </trkpt>
      <trkpt lat="48.70441" lon="1.76253">
        <ele>172.80000305176</ele>
        <time>2012-01-12T08:55:07.000Z</time>
      </trkpt>
      <trkpt lat="48.70441" lon="1.76258">
        <ele>172.80000305176</ele>
        <time>2012-01-12T08:55:09.000Z</time>
      </trkpt>
      <trkpt lat="48.70438" lon="1.76267">
        <ele>173</ele>
        <time>2012-01-12T08:55:14.000Z</time>
      </trkpt>
      <trkpt lat="48.70437" lon="1.76276">
        <ele>173</ele>
        <time>2012-01-12T08:55:18.000Z</time>
      </trkpt>
      <trkpt lat="48.70438" lon="1.76288">
        <ele>173</ele>
        <time>2012-01-12T08:55:23.000Z</time>
      </trkpt>
      <trkpt lat="48.70439" lon="1.763">
        <ele>173</ele>
        <time>2012-01-12T08:55:29.000Z</time>
      </trkpt>
      <trkpt lat="48.70438" lon="1.76302">
        <ele>173.19999694824</ele>
        <time>2012-01-12T08:55:31.000Z</time>
      </trkpt>
      <trkpt lat="48.70436" lon="1.76309">
        <ele>173.19999694824</ele>
        <time>2012-01-12T08:55:36.000Z</time>
      </trkpt>
      <trkpt lat="48.70438" lon="1.76318">
        <ele>173.19999694824</ele>
        <time>2012-01-12T08:55:40.000Z</time>
      </trkpt>
      <trkpt lat="48.70443" lon="1.76329">
        <ele>173</ele>
        <time>2012-01-12T08:55:44.000Z</time>
      </trkpt>
      <trkpt lat="48.70446" lon="1.76335">
        <ele>173</ele>
        <time>2012-01-12T08:55:47.000Z</time>
      </trkpt>
      <trkpt lat="48.70445" lon="1.76347">
        <ele>173.60000610352</ele>
        <time>2012-01-12T08:55:53.000Z</time>
      </trkpt>
      <trkpt lat="48.70445" lon="1.76349">
        <ele>173.80000305176</ele>
        <time>2012-01-12T08:55:54.000Z</time>
      </trkpt>
      <trkpt lat="48.70447" lon="1.76357">
        <ele>174</ele>
        <time>2012-01-12T08:55:59.000Z</time>
      </trkpt>
      <trkpt lat="48.7045" lon="1.76371">
        <ele>174.60000610352</ele>
        <time>2012-01-12T08:56:06.000Z</time>
      </trkpt>
      <trkpt lat="48.70451" lon="1.76377">
        <ele>174.80000305176</ele>
        <time>2012-01-12T08:56:10.000Z</time>
      </trkpt>
      <trkpt lat="48.70451" lon="1.76378">
        <ele>175</ele>
        <time>2012-01-12T08:56:11.000Z</time>
      </trkpt>
      <trkpt lat="48.70452" lon="1.76382">
        <ele>175</ele>
        <time>2012-01-12T08:56:17.000Z</time>
      </trkpt>
      <trkpt lat="48.70444" lon="1.76372">
        <ele>174.80000305176</ele>
        <time>2012-01-12T08:57:19.000Z</time>
      </trkpt>
      <trkpt lat="48.70446" lon="1.76375">
        <ele>175</ele>
        <time>2012-01-12T08:57:22.000Z</time>
      </trkpt>
      <trkpt lat="48.70447" lon="1.76377">
        <ele>175</ele>
        <time>2012-01-12T08:57:23.000Z</time>
      </trkpt>
      <trkpt lat="48.70448" lon="1.76383">
        <ele>175.19999694824</ele>
        <time>2012-01-12T08:57:26.000Z</time>
      </trkpt>
      <trkpt lat="48.70456" lon="1.76403">
        <ele>176</ele>
        <time>2012-01-12T08:57:32.000Z</time>
      </trkpt>
      <trkpt lat="48.70464" lon="1.76432">
        <ele>176.60000610352</ele>
        <time>2012-01-12T08:57:39.000Z</time>
      </trkpt>
      <trkpt lat="48.70464" lon="1.76435">
        <ele>176.60000610352</ele>
        <time>2012-01-12T08:57:40.000Z</time>
      </trkpt>
      <trkpt lat="48.70465" lon="1.76448">
        <ele>177</ele>
        <time>2012-01-12T08:57:45.000Z</time>
      </trkpt>
      <trkpt lat="48.70462" lon="1.7646">
        <ele>177.39999389648</ele>
        <time>2012-01-12T08:57:52.000Z</time>
      </trkpt>
      <trkpt lat="48.70464" lon="1.76467">
        <ele>177.39999389648</ele>
        <time>2012-01-12T08:57:55.000Z</time>
      </trkpt>
      <trkpt lat="48.70462" lon="1.7647">
        <ele>177.60000610352</ele>
        <time>2012-01-12T08:57:57.000Z</time>
      </trkpt>
      <trkpt lat="48.7046" lon="1.76481">
        <ele>178</ele>
        <time>2012-01-12T08:58:02.000Z</time>
      </trkpt>
      <trkpt lat="48.70456" lon="1.76496">
        <ele>178.60000610352</ele>
        <time>2012-01-12T08:58:09.000Z</time>
      </trkpt>
      <trkpt lat="48.70456" lon="1.7651">
        <ele>178.80000305176</ele>
        <time>2012-01-12T08:58:15.000Z</time>
      </trkpt>
      <trkpt lat="48.70454" lon="1.76523">
        <ele>178.80000305176</ele>
        <time>2012-01-12T08:58:22.000Z</time>
      </trkpt>
      <trkpt lat="48.7045" lon="1.76535">
        <ele>179.19999694824</ele>
        <time>2012-01-12T08:58:29.000Z</time>
      </trkpt>
      <trkpt lat="48.70449" lon="1.7654">
        <ele>179.19999694824</ele>
        <time>2012-01-12T08:58:32.000Z</time>
      </trkpt>
      <trkpt lat="48.70447" lon="1.76553">
        <ele>179.39999389648</ele>
        <time>2012-01-12T08:58:38.000Z</time>
      </trkpt>
      <trkpt lat="48.70447" lon="1.76559">
        <ele>179.39999389648</ele>
        <time>2012-01-12T08:58:41.000Z</time>
      </trkpt>
      <trkpt lat="48.70445" lon="1.76573">
        <ele>179.60000610352</ele>
        <time>2012-01-12T08:58:47.000Z</time>
      </trkpt>
      <trkpt lat="48.7044" lon="1.76582">
        <ele>179.80000305176</ele>
        <time>2012-01-12T08:58:53.000Z</time>
      </trkpt>
      <trkpt lat="48.70435" lon="1.76585">
        <ele>180.19999694824</ele>
        <time>2012-01-12T08:58:56.000Z</time>
      </trkpt>
      <trkpt lat="48.70425" lon="1.76586">
        <ele>180.60000610352</ele>
        <time>2012-01-12T08:59:00.000Z</time>
      </trkpt>
      <trkpt lat="48.70413" lon="1.76593">
        <ele>180.80000305176</ele>
        <time>2012-01-12T08:59:06.000Z</time>
      </trkpt>
      <trkpt lat="48.70406" lon="1.76597">
        <ele>180.60000610352</ele>
        <time>2012-01-12T08:59:11.000Z</time>
      </trkpt>
      <trkpt lat="48.70399" lon="1.76599">
        <ele>180.39999389648</ele>
        <time>2012-01-12T08:59:18.000Z</time>
      </trkpt>
      <trkpt lat="48.70389" lon="1.76603">
        <ele>180</ele>
        <time>2012-01-12T08:59:26.000Z</time>
      </trkpt>
      <trkpt lat="48.70384" lon="1.76607">
        <ele>180</ele>
        <time>2012-01-12T08:59:30.000Z</time>
      </trkpt>
      <trkpt lat="48.70379" lon="1.7661">
        <ele>179.80000305176</ele>
        <time>2012-01-12T08:59:34.000Z</time>
      </trkpt>
      <trkpt lat="48.70372" lon="1.76613">
        <ele>179.60000610352</ele>
        <time>2012-01-12T08:59:39.000Z</time>
      </trkpt>
      <trkpt lat="48.70364" lon="1.76617">
        <ele>179.39999389648</ele>
        <time>2012-01-12T08:59:45.000Z</time>
      </trkpt>
      <trkpt lat="48.70359" lon="1.7662">
        <ele>179.19999694824</ele>
        <time>2012-01-12T08:59:49.000Z</time>
      </trkpt>
      <trkpt lat="48.70352" lon="1.76625">
        <ele>179</ele>
        <time>2012-01-12T08:59:56.000Z</time>
      </trkpt>
      <trkpt lat="48.7035" lon="1.76627">
        <ele>178.80000305176</ele>
        <time>2012-01-12T08:59:58.000Z</time>
      </trkpt>
      <trkpt lat="48.70347" lon="1.7663">
        <ele>178.80000305176</ele>
        <time>2012-01-12T09:00:02.000Z</time>
      </trkpt>
      <trkpt lat="48.70342" lon="1.76633">
        <ele>178.60000610352</ele>
        <time>2012-01-12T09:00:06.000Z</time>
      </trkpt>
      <trkpt lat="48.7034" lon="1.76631">
        <ele>178.60000610352</ele>
        <time>2012-01-12T09:00:08.000Z</time>
      </trkpt>
      <trkpt lat="48.70339" lon="1.76628">
        <ele>178.60000610352</ele>
        <time>2012-01-12T09:00:13.000Z</time>
      </trkpt>
      <trkpt lat="48.70339" lon="1.76628">
        <ele>178.60000610352</ele>
        <time>2012-01-12T09:00:15.000Z</time>
      </trkpt>
      <trkpt lat="48.70339" lon="1.76619">
        <ele>178.60000610352</ele>
        <time>2012-01-12T09:00:30.000Z</time>
      </trkpt>
      <trkpt lat="48.70338" lon="1.7662">
        <ele>178.60000610352</ele>
        <time>2012-01-12T09:00:31.000Z</time>
      </trkpt>
      <trkpt lat="48.70334" lon="1.76621">
        <ele>178.60000610352</ele>
        <time>2012-01-12T09:00:40.000Z</time>
      </trkpt>
      <trkpt lat="48.70333" lon="1.76619">
        <ele>178.60000610352</ele>
        <time>2012-01-12T09:00:44.000Z</time>
      </trkpt>
      <trkpt lat="48.7034" lon="1.76622">
        <ele>178.80000305176</ele>
        <time>2012-01-12T09:00:56.000Z</time>
      </trkpt>
      <trkpt lat="48.70341" lon="1.76623">
        <ele>178.80000305176</ele>
        <time>2012-01-12T09:00:57.000Z</time>
      </trkpt>
      <trkpt lat="48.70342" lon="1.76629">
        <ele>178.60000610352</ele>
        <time>2012-01-12T09:00:59.000Z</time>
      </trkpt>
      <trkpt lat="48.70342" lon="1.76632">
        <ele>178.60000610352</ele>
        <time>2012-01-12T09:01:03.000Z</time>
      </trkpt>
      <trkpt lat="48.70335" lon="1.76641">
        <ele>178.39999389648</ele>
        <time>2012-01-12T09:01:19.000Z</time>
      </trkpt>
      <trkpt lat="48.7033" lon="1.76644">
        <ele>178.39999389648</ele>
        <time>2012-01-12T09:01:25.000Z</time>
      </trkpt>
      <trkpt lat="48.70326" lon="1.76648">
        <ele>178.39999389648</ele>
        <time>2012-01-12T09:01:37.000Z</time>
      </trkpt>
      <trkpt lat="48.70318" lon="1.76655">
        <ele>178.39999389648</ele>
        <time>2012-01-12T09:01:42.000Z</time>
      </trkpt>
      <trkpt lat="48.70308" lon="1.76665">
        <ele>178.60000610352</ele>
        <time>2012-01-12T09:01:49.000Z</time>
      </trkpt>
      <trkpt lat="48.703" lon="1.7667">
        <ele>178.80000305176</ele>
        <time>2012-01-12T09:01:55.000Z</time>
      </trkpt>
      <trkpt lat="48.70296" lon="1.76674">
        <ele>179</ele>
        <time>2012-01-12T09:01:59.000Z</time>
      </trkpt>
      <trkpt lat="48.70284" lon="1.7668">
        <ele>179.19999694824</ele>
        <time>2012-01-12T09:02:07.000Z</time>
      </trkpt>
      <trkpt lat="48.70273" lon="1.76684">
        <ele>179.39999389648</ele>
        <time>2012-01-12T09:02:13.000Z</time>
      </trkpt>
      <trkpt lat="48.70266" lon="1.76688">
        <ele>179.60000610352</ele>
        <time>2012-01-12T09:02:19.000Z</time>
      </trkpt>
      <trkpt lat="48.70256" lon="1.76694">
        <ele>179.80000305176</ele>
        <time>2012-01-12T09:02:27.000Z</time>
      </trkpt>
      <trkpt lat="48.70244" lon="1.76702">
        <ele>180.19999694824</ele>
        <time>2012-01-12T09:02:35.000Z</time>
      </trkpt>
      <trkpt lat="48.70237" lon="1.76707">
        <ele>180.60000610352</ele>
        <time>2012-01-12T09:02:41.000Z</time>
      </trkpt>
      <trkpt lat="48.70226" lon="1.76713">
        <ele>181</ele>
        <time>2012-01-12T09:02:49.000Z</time>
      </trkpt>
      <trkpt lat="48.70214" lon="1.76721">
        <ele>181.39999389648</ele>
        <time>2012-01-12T09:02:58.000Z</time>
      </trkpt>
      <trkpt lat="48.70206" lon="1.7673">
        <ele>181.80000305176</ele>
        <time>2012-01-12T09:03:05.000Z</time>
      </trkpt>
      <trkpt lat="48.70196" lon="1.7674">
        <ele>182</ele>
        <time>2012-01-12T09:03:13.000Z</time>
      </trkpt>
      <trkpt lat="48.70193" lon="1.76743">
        <ele>182.19999694824</ele>
        <time>2012-01-12T09:03:16.000Z</time>
      </trkpt>
      <trkpt lat="48.7019" lon="1.76742">
        <ele>182.19999694824</ele>
        <time>2012-01-12T09:03:20.000Z</time>
      </trkpt>
      <trkpt lat="48.70184" lon="1.76755">
        <ele>182.19999694824</ele>
        <time>2012-01-12T09:03:28.000Z</time>
      </trkpt>
      <trkpt lat="48.70177" lon="1.76765">
        <ele>182.19999694824</ele>
        <time>2012-01-12T09:03:35.000Z</time>
      </trkpt>
      <trkpt lat="48.70174" lon="1.76768">
        <ele>182</ele>
        <time>2012-01-12T09:03:37.000Z</time>
      </trkpt>
      <trkpt lat="48.70164" lon="1.76777">
        <ele>182.19999694824</ele>
        <time>2012-01-12T09:03:46.000Z</time>
      </trkpt>
      <trkpt lat="48.70154" lon="1.76781">
        <ele>182.60000610352</ele>
        <time>2012-01-12T09:03:53.000Z</time>
      </trkpt>
      <trkpt lat="48.70146" lon="1.76787">
        <ele>182.80000305176</ele>
        <time>2012-01-12T09:03:59.000Z</time>
      </trkpt>
      <trkpt lat="48.70136" lon="1.76787">
        <ele>183.19999694824</ele>
        <time>2012-01-12T09:04:05.000Z</time>
      </trkpt>
      <trkpt lat="48.70126" lon="1.7679">
        <ele>183.80000305176</ele>
        <time>2012-01-12T09:04:11.000Z</time>
      </trkpt>
      <trkpt lat="48.70114" lon="1.76787">
        <ele>184.39999389648</ele>
        <time>2012-01-12T09:04:19.000Z</time>
      </trkpt>
      <trkpt lat="48.70105" lon="1.76789">
        <ele>184.80000305176</ele>
        <time>2012-01-12T09:04:26.000Z</time>
      </trkpt>
      <trkpt lat="48.70104" lon="1.76789">
        <ele>185</ele>
        <time>2012-01-12T09:04:27.000Z</time>
      </trkpt>
      <trkpt lat="48.70093" lon="1.76788">
        <ele>185.39999389648</ele>
        <time>2012-01-12T09:04:33.000Z</time>
      </trkpt>
      <trkpt lat="48.70089" lon="1.76787">
        <ele>185.60000610352</ele>
        <time>2012-01-12T09:04:35.000Z</time>
      </trkpt>
      <trkpt lat="48.70079" lon="1.76789">
        <ele>186</ele>
        <time>2012-01-12T09:04:41.000Z</time>
      </trkpt>
      <trkpt lat="48.70075" lon="1.76789">
        <ele>186</ele>
        <time>2012-01-12T09:04:43.000Z</time>
      </trkpt>
      <trkpt lat="48.70064" lon="1.76787">
        <ele>185.80000305176</ele>
        <time>2012-01-12T09:04:50.000Z</time>
      </trkpt>
      <trkpt lat="48.70057" lon="1.76789">
        <ele>185.80000305176</ele>
        <time>2012-01-12T09:04:56.000Z</time>
      </trkpt>
      <trkpt lat="48.70051" lon="1.76788">
        <ele>185.60000610352</ele>
        <time>2012-01-12T09:05:03.000Z</time>
      </trkpt>
      <trkpt lat="48.70041" lon="1.76789">
        <ele>185.60000610352</ele>
        <time>2012-01-12T09:05:10.000Z</time>
      </trkpt>
      <trkpt lat="48.7003" lon="1.7679">
        <ele>185.39999389648</ele>
        <time>2012-01-12T09:05:18.000Z</time>
      </trkpt>
      <trkpt lat="48.70022" lon="1.76787">
        <ele>185.39999389648</ele>
        <time>2012-01-12T09:05:22.000Z</time>
      </trkpt>
      <trkpt lat="48.70014" lon="1.76786">
        <ele>185.19999694824</ele>
        <time>2012-01-12T09:05:27.000Z</time>
      </trkpt>
      <trkpt lat="48.70004" lon="1.76785">
        <ele>185.19999694824</ele>
        <time>2012-01-12T09:05:34.000Z</time>
      </trkpt>
      <trkpt lat="48.69994" lon="1.76781">
        <ele>185</ele>
        <time>2012-01-12T09:05:40.000Z</time>
      </trkpt>
      <trkpt lat="48.69982" lon="1.7678">
        <ele>184.80000305176</ele>
        <time>2012-01-12T09:05:47.000Z</time>
      </trkpt>
      <trkpt lat="48.69974" lon="1.7678">
        <ele>184.60000610352</ele>
        <time>2012-01-12T09:05:52.000Z</time>
      </trkpt>
      <trkpt lat="48.69961" lon="1.76781">
        <ele>184.19999694824</ele>
        <time>2012-01-12T09:06:01.000Z</time>
      </trkpt>
      <trkpt lat="48.69951" lon="1.76781">
        <ele>183.80000305176</ele>
        <time>2012-01-12T09:06:08.000Z</time>
      </trkpt>
      <trkpt lat="48.69939" lon="1.76782">
        <ele>183.60000610352</ele>
        <time>2012-01-12T09:06:16.000Z</time>
      </trkpt>
      <trkpt lat="48.6993" lon="1.76786">
        <ele>183</ele>
        <time>2012-01-12T09:06:24.000Z</time>
      </trkpt>
      <trkpt lat="48.6992" lon="1.76789">
        <ele>182.60000610352</ele>
        <time>2012-01-12T09:06:30.000Z</time>
      </trkpt>
      <trkpt lat="48.69911" lon="1.76791">
        <ele>182.60000610352</ele>
        <time>2012-01-12T09:06:36.000Z</time>
      </trkpt>
      <trkpt lat="48.69905" lon="1.76791">
        <ele>182.80000305176</ele>
        <time>2012-01-12T09:06:42.000Z</time>
      </trkpt>
      <trkpt lat="48.69901" lon="1.76786">
        <ele>183</ele>
        <time>2012-01-12T09:06:48.000Z</time>
      </trkpt>
      <trkpt lat="48.69893" lon="1.76777">
        <ele>183.60000610352</ele>
        <time>2012-01-12T09:06:53.000Z</time>
      </trkpt>
      <trkpt lat="48.6989" lon="1.76774">
        <ele>183.80000305176</ele>
        <time>2012-01-12T09:06:55.000Z</time>
      </trkpt>
      <trkpt lat="48.69884" lon="1.76769">
        <ele>184</ele>
        <time>2012-01-12T09:06:59.000Z</time>
      </trkpt>
      <trkpt lat="48.69876" lon="1.76759">
        <ele>184.60000610352</ele>
        <time>2012-01-12T09:07:06.000Z</time>
      </trkpt>
      <trkpt lat="48.69873" lon="1.76756">
        <ele>184.80000305176</ele>
        <time>2012-01-12T09:07:08.000Z</time>
      </trkpt>
      <trkpt lat="48.69871" lon="1.76754">
        <ele>185</ele>
        <time>2012-01-12T09:07:10.000Z</time>
      </trkpt>
      <trkpt lat="48.6986" lon="1.76745">
        <ele>185.19999694824</ele>
        <time>2012-01-12T09:07:16.000Z</time>
      </trkpt>
      <trkpt lat="48.69851" lon="1.76737">
        <ele>185.19999694824</ele>
        <time>2012-01-12T09:07:22.000Z</time>
      </trkpt>
      <trkpt lat="48.69843" lon="1.76727">
        <ele>185.19999694824</ele>
        <time>2012-01-12T09:07:28.000Z</time>
      </trkpt>
      <trkpt lat="48.69838" lon="1.76721">
        <ele>185.19999694824</ele>
        <time>2012-01-12T09:07:33.000Z</time>
      </trkpt>
      <trkpt lat="48.69828" lon="1.76711">
        <ele>185</ele>
        <time>2012-01-12T09:07:41.000Z</time>
      </trkpt>
      <trkpt lat="48.69824" lon="1.76707">
        <ele>184.80000305176</ele>
        <time>2012-01-12T09:07:45.000Z</time>
      </trkpt>
      <trkpt lat="48.69817" lon="1.76701">
        <ele>184.39999389648</ele>
        <time>2012-01-12T09:07:50.000Z</time>
      </trkpt>
      <trkpt lat="48.69808" lon="1.7669">
        <ele>184</ele>
        <time>2012-01-12T09:07:58.000Z</time>
      </trkpt>
      <trkpt lat="48.69801" lon="1.7668">
        <ele>183.80000305176</ele>
        <time>2012-01-12T09:08:05.000Z</time>
      </trkpt>
      <trkpt lat="48.69787" lon="1.76667">
        <ele>183.39999389648</ele>
        <time>2012-01-12T09:08:13.000Z</time>
      </trkpt>
      <trkpt lat="48.69778" lon="1.76657">
        <ele>183.39999389648</ele>
        <time>2012-01-12T09:08:20.000Z</time>
      </trkpt>
      <trkpt lat="48.69768" lon="1.76645">
        <ele>183.39999389648</ele>
        <time>2012-01-12T09:08:28.000Z</time>
      </trkpt>
      <trkpt lat="48.6976" lon="1.76636">
        <ele>183.39999389648</ele>
        <time>2012-01-12T09:08:36.000Z</time>
      </trkpt>
      <trkpt lat="48.69752" lon="1.76626">
        <ele>183.39999389648</ele>
        <time>2012-01-12T09:08:43.000Z</time>
      </trkpt>
      <trkpt lat="48.69742" lon="1.76615">
        <ele>183.19999694824</ele>
        <time>2012-01-12T09:08:50.000Z</time>
      </trkpt>
      <trkpt lat="48.69735" lon="1.76606">
        <ele>182.80000305176</ele>
        <time>2012-01-12T09:08:56.000Z</time>
      </trkpt>
      <trkpt lat="48.69731" lon="1.76593">
        <ele>182.80000305176</ele>
        <time>2012-01-12T09:09:03.000Z</time>
      </trkpt>
      <trkpt lat="48.69731" lon="1.76592">
        <ele>182.80000305176</ele>
        <time>2012-01-12T09:09:04.000Z</time>
      </trkpt>
      <trkpt lat="48.69731" lon="1.76587">
        <ele>182.80000305176</ele>
        <time>2012-01-12T09:09:08.000Z</time>
      </trkpt>
      <trkpt lat="48.6973" lon="1.76584">
        <ele>182.80000305176</ele>
        <time>2012-01-12T09:09:10.000Z</time>
      </trkpt>
      <trkpt lat="48.6972" lon="1.76573">
        <ele>182.39999389648</ele>
        <time>2012-01-12T09:09:19.000Z</time>
      </trkpt>
      <trkpt lat="48.69716" lon="1.76563">
        <ele>182.39999389648</ele>
        <time>2012-01-12T09:09:25.000Z</time>
      </trkpt>
      <trkpt lat="48.69713" lon="1.76557">
        <ele>182.19999694824</ele>
        <time>2012-01-12T09:09:30.000Z</time>
      </trkpt>
      <trkpt lat="48.6971" lon="1.76555">
        <ele>182</ele>
        <time>2012-01-12T09:09:33.000Z</time>
      </trkpt>
      <trkpt lat="48.69701" lon="1.76543">
        <ele>181.80000305176</ele>
        <time>2012-01-12T09:09:40.000Z</time>
      </trkpt>
      <trkpt lat="48.69698" lon="1.76538">
        <ele>181.80000305176</ele>
        <time>2012-01-12T09:09:43.000Z</time>
      </trkpt>
      <trkpt lat="48.69691" lon="1.7653">
        <ele>181.60000610352</ele>
        <time>2012-01-12T09:09:49.000Z</time>
      </trkpt>
      <trkpt lat="48.69684" lon="1.76518">
        <ele>181.39999389648</ele>
        <time>2012-01-12T09:09:56.000Z</time>
      </trkpt>
      <trkpt lat="48.69675" lon="1.76505">
        <ele>181.19999694824</ele>
        <time>2012-01-12T09:10:05.000Z</time>
      </trkpt>
      <trkpt lat="48.69672" lon="1.76497">
        <ele>181.19999694824</ele>
        <time>2012-01-12T09:10:10.000Z</time>
      </trkpt>
      <trkpt lat="48.69667" lon="1.76488">
        <ele>181.19999694824</ele>
        <time>2012-01-12T09:10:15.000Z</time>
      </trkpt>
      <trkpt lat="48.69665" lon="1.76483">
        <ele>181.19999694824</ele>
        <time>2012-01-12T09:10:19.000Z</time>
      </trkpt>
      <trkpt lat="48.69664" lon="1.76481">
        <ele>181.19999694824</ele>
        <time>2012-01-12T09:10:20.000Z</time>
      </trkpt>
      <trkpt lat="48.69654" lon="1.76466">
        <ele>181.19999694824</ele>
        <time>2012-01-12T09:10:28.000Z</time>
      </trkpt>
      <trkpt lat="48.69653" lon="1.76464">
        <ele>181.19999694824</ele>
        <time>2012-01-12T09:10:29.000Z</time>
      </trkpt>
      <trkpt lat="48.69645" lon="1.76451">
        <ele>181.39999389648</ele>
        <time>2012-01-12T09:10:36.000Z</time>
      </trkpt>
      <trkpt lat="48.6964" lon="1.76441">
        <ele>181.60000610352</ele>
        <time>2012-01-12T09:10:42.000Z</time>
      </trkpt>
      <trkpt lat="48.69636" lon="1.76429">
        <ele>181.80000305176</ele>
        <time>2012-01-12T09:10:49.000Z</time>
      </trkpt>
      <trkpt lat="48.69629" lon="1.76415">
        <ele>182</ele>
        <time>2012-01-12T09:10:56.000Z</time>
      </trkpt>
      <trkpt lat="48.69627" lon="1.76413">
        <ele>182</ele>
        <time>2012-01-12T09:11:00.000Z</time>
      </trkpt>
      <trkpt lat="48.69621" lon="1.76407">
        <ele>182.19999694824</ele>
        <time>2012-01-12T09:11:09.000Z</time>
      </trkpt>
      <trkpt lat="48.69616" lon="1.76397">
        <ele>182.19999694824</ele>
        <time>2012-01-12T09:11:13.000Z</time>
      </trkpt>
      <trkpt lat="48.69606" lon="1.76385">
        <ele>182.39999389648</ele>
        <time>2012-01-12T09:11:21.000Z</time>
      </trkpt>
      <trkpt lat="48.69602" lon="1.76374">
        <ele>182.60000610352</ele>
        <time>2012-01-12T09:11:28.000Z</time>
      </trkpt>
      <trkpt lat="48.69596" lon="1.76363">
        <ele>182.60000610352</ele>
        <time>2012-01-12T09:11:35.000Z</time>
      </trkpt>
      <trkpt lat="48.69592" lon="1.76357">
        <ele>182.80000305176</ele>
        <time>2012-01-12T09:11:39.000Z</time>
      </trkpt>
      <trkpt lat="48.69587" lon="1.76346">
        <ele>182.80000305176</ele>
        <time>2012-01-12T09:11:46.000Z</time>
      </trkpt>
      <trkpt lat="48.69583" lon="1.76337">
        <ele>183</ele>
        <time>2012-01-12T09:11:51.000Z</time>
      </trkpt>
      <trkpt lat="48.69575" lon="1.76334">
        <ele>183</ele>
        <time>2012-01-12T09:11:57.000Z</time>
      </trkpt>
      <trkpt lat="48.69563" lon="1.76323">
        <ele>183.19999694824</ele>
        <time>2012-01-12T09:12:05.000Z</time>
      </trkpt>
      <trkpt lat="48.69558" lon="1.76312">
        <ele>183.19999694824</ele>
        <time>2012-01-12T09:12:10.000Z</time>
      </trkpt>
      <trkpt lat="48.69556" lon="1.76308">
        <ele>183.39999389648</ele>
        <time>2012-01-12T09:12:12.000Z</time>
      </trkpt>
      <trkpt lat="48.69548" lon="1.76299">
        <ele>183.39999389648</ele>
        <time>2012-01-12T09:12:19.000Z</time>
      </trkpt>
      <trkpt lat="48.69544" lon="1.76287">
        <ele>183.60000610352</ele>
        <time>2012-01-12T09:12:25.000Z</time>
      </trkpt>
      <trkpt lat="48.69542" lon="1.76278">
        <ele>183.60000610352</ele>
        <time>2012-01-12T09:12:30.000Z</time>
      </trkpt>
      <trkpt lat="48.6954" lon="1.76269">
        <ele>183.80000305176</ele>
        <time>2012-01-12T09:12:34.000Z</time>
      </trkpt>
      <trkpt lat="48.6953" lon="1.76256">
        <ele>184</ele>
        <time>2012-01-12T09:12:42.000Z</time>
      </trkpt>
      <trkpt lat="48.69525" lon="1.76248">
        <ele>184</ele>
        <time>2012-01-12T09:12:46.000Z</time>
      </trkpt>
      <trkpt lat="48.69517" lon="1.76236">
        <ele>183.80000305176</ele>
        <time>2012-01-12T09:12:53.000Z</time>
      </trkpt>
      <trkpt lat="48.69513" lon="1.76227">
        <ele>183.80000305176</ele>
        <time>2012-01-12T09:13:00.000Z</time>
      </trkpt>
      <trkpt lat="48.69514" lon="1.76226">
        <ele>183.80000305176</ele>
        <time>2012-01-12T09:13:05.000Z</time>
      </trkpt>
      <trkpt lat="48.69512" lon="1.76223">
        <ele>183.60000610352</ele>
        <time>2012-01-12T09:13:11.000Z</time>
      </trkpt>
      <trkpt lat="48.69507" lon="1.76215">
        <ele>183.60000610352</ele>
        <time>2012-01-12T09:13:20.000Z</time>
      </trkpt>
      <trkpt lat="48.695" lon="1.76203">
        <ele>183.39999389648</ele>
        <time>2012-01-12T09:13:26.000Z</time>
      </trkpt>
      <trkpt lat="48.69495" lon="1.76196">
        <ele>183.19999694824</ele>
        <time>2012-01-12T09:13:31.000Z</time>
      </trkpt>
      <trkpt lat="48.69491" lon="1.76188">
        <ele>183.19999694824</ele>
        <time>2012-01-12T09:13:36.000Z</time>
      </trkpt>
      <trkpt lat="48.69488" lon="1.7618">
        <ele>183</ele>
        <time>2012-01-12T09:13:41.000Z</time>
      </trkpt>
      <trkpt lat="48.69483" lon="1.7617">
        <ele>182.80000305176</ele>
        <time>2012-01-12T09:13:48.000Z</time>
      </trkpt>
      <trkpt lat="48.69478" lon="1.76159">
        <ele>182.39999389648</ele>
        <time>2012-01-12T09:13:54.000Z</time>
      </trkpt>
      <trkpt lat="48.69474" lon="1.76154">
        <ele>182.19999694824</ele>
        <time>2012-01-12T09:13:57.000Z</time>
      </trkpt>
      <trkpt lat="48.69469" lon="1.76147">
        <ele>181.80000305176</ele>
        <time>2012-01-12T09:14:01.000Z</time>
      </trkpt>
      <trkpt lat="48.69461" lon="1.76137">
        <ele>181.19999694824</ele>
        <time>2012-01-12T09:14:08.000Z</time>
      </trkpt>
      <trkpt lat="48.69454" lon="1.76125">
        <ele>180.39999389648</ele>
        <time>2012-01-12T09:14:15.000Z</time>
      </trkpt>
      <trkpt lat="48.69452" lon="1.76121">
        <ele>180.19999694824</ele>
        <time>2012-01-12T09:14:17.000Z</time>
      </trkpt>
      <trkpt lat="48.69445" lon="1.7611">
        <ele>179.39999389648</ele>
        <time>2012-01-12T09:14:25.000Z</time>
      </trkpt>
      <trkpt lat="48.6944" lon="1.76099">
        <ele>178.60000610352</ele>
        <time>2012-01-12T09:14:31.000Z</time>
      </trkpt>
      <trkpt lat="48.69431" lon="1.76084">
        <ele>177.60000610352</ele>
        <time>2012-01-12T09:14:39.000Z</time>
      </trkpt>
      <trkpt lat="48.69422" lon="1.7607">
        <ele>176.80000305176</ele>
        <time>2012-01-12T09:14:46.000Z</time>
      </trkpt>
      <trkpt lat="48.69414" lon="1.76058">
        <ele>176.19999694824</ele>
        <time>2012-01-12T09:14:54.000Z</time>
      </trkpt>
      <trkpt lat="48.69408" lon="1.7605">
        <ele>175.80000305176</ele>
        <time>2012-01-12T09:15:01.000Z</time>
      </trkpt>
      <trkpt lat="48.69405" lon="1.76043">
        <ele>175.60000610352</ele>
        <time>2012-01-12T09:15:07.000Z</time>
      </trkpt>
      <trkpt lat="48.69399" lon="1.76037">
        <ele>175.39999389648</ele>
        <time>2012-01-12T09:15:13.000Z</time>
      </trkpt>
      <trkpt lat="48.69388" lon="1.76022">
        <ele>174.80000305176</ele>
        <time>2012-01-12T09:15:21.000Z</time>
      </trkpt>
      <trkpt lat="48.69386" lon="1.76018">
        <ele>174.80000305176</ele>
        <time>2012-01-12T09:15:24.000Z</time>
      </trkpt>
      <trkpt lat="48.69385" lon="1.76014">
        <ele>174.60000610352</ele>
        <time>2012-01-12T09:15:27.000Z</time>
      </trkpt>
      <trkpt lat="48.69381" lon="1.76006">
        <ele>174.19999694824</ele>
        <time>2012-01-12T09:15:31.000Z</time>
      </trkpt>
      <trkpt lat="48.69373" lon="1.75993">
        <ele>173.60000610352</ele>
        <time>2012-01-12T09:15:39.000Z</time>
      </trkpt>
      <trkpt lat="48.69373" lon="1.75991">
        <ele>173.39999389648</ele>
        <time>2012-01-12T09:15:40.000Z</time>
      </trkpt>
      <trkpt lat="48.69368" lon="1.75983">
        <ele>172.80000305176</ele>
        <time>2012-01-12T09:15:46.000Z</time>
      </trkpt>
      <trkpt lat="48.69364" lon="1.75978">
        <ele>172.60000610352</ele>
        <time>2012-01-12T09:15:50.000Z</time>
      </trkpt>
      <trkpt lat="48.69362" lon="1.75973">
        <ele>172.19999694824</ele>
        <time>2012-01-12T09:15:52.000Z</time>
      </trkpt>
      <trkpt lat="48.69352" lon="1.75956">
        <ele>171</ele>
        <time>2012-01-12T09:16:00.000Z</time>
      </trkpt>
      <trkpt lat="48.69347" lon="1.75948">
        <ele>170.39999389648</ele>
        <time>2012-01-12T09:16:05.000Z</time>
      </trkpt>
      <trkpt lat="48.69343" lon="1.75942">
        <ele>170</ele>
        <time>2012-01-12T09:16:09.000Z</time>
      </trkpt>
      <trkpt lat="48.69335" lon="1.75928">
        <ele>168.80000305176</ele>
        <time>2012-01-12T09:16:17.000Z</time>
      </trkpt>
      <trkpt lat="48.69327" lon="1.75916">
        <ele>168</ele>
        <time>2012-01-12T09:16:24.000Z</time>
      </trkpt>
      <trkpt lat="48.69327" lon="1.75915">
        <ele>168</ele>
        <time>2012-01-12T09:16:25.000Z</time>
      </trkpt>
      <trkpt lat="48.69323" lon="1.75909">
        <ele>167.80000305176</ele>
        <time>2012-01-12T09:16:29.000Z</time>
      </trkpt>
      <trkpt lat="48.69315" lon="1.75894">
        <ele>167.19999694824</ele>
        <time>2012-01-12T09:16:37.000Z</time>
      </trkpt>
      <trkpt lat="48.6931" lon="1.75885">
        <ele>167</ele>
        <time>2012-01-12T09:16:42.000Z</time>
      </trkpt>
      <trkpt lat="48.69302" lon="1.75874">
        <ele>166.39999389648</ele>
        <time>2012-01-12T09:16:48.000Z</time>
      </trkpt>
      <trkpt lat="48.693" lon="1.75871">
        <ele>166.39999389648</ele>
        <time>2012-01-12T09:16:50.000Z</time>
      </trkpt>
      <trkpt lat="48.69291" lon="1.75856">
        <ele>165.60000610352</ele>
        <time>2012-01-12T09:16:57.000Z</time>
      </trkpt>
      <trkpt lat="48.69283" lon="1.75843">
        <ele>165</ele>
        <time>2012-01-12T09:17:03.000Z</time>
      </trkpt>
      <trkpt lat="48.69276" lon="1.75835">
        <ele>164.39999389648</ele>
        <time>2012-01-12T09:17:09.000Z</time>
      </trkpt>
      <trkpt lat="48.69263" lon="1.75832">
        <ele>164.19999694824</ele>
        <time>2012-01-12T09:17:16.000Z</time>
      </trkpt>
      <trkpt lat="48.69252" lon="1.75831">
        <ele>164</ele>
        <time>2012-01-12T09:17:23.000Z</time>
      </trkpt>
      <trkpt lat="48.69241" lon="1.7583">
        <ele>164</ele>
        <time>2012-01-12T09:17:31.000Z</time>
      </trkpt>
      <trkpt lat="48.69231" lon="1.75829">
        <ele>164.19999694824</ele>
        <time>2012-01-12T09:17:39.000Z</time>
      </trkpt>
      <trkpt lat="48.69221" lon="1.75828">
        <ele>164.19999694824</ele>
        <time>2012-01-12T09:17:46.000Z</time>
      </trkpt>
      <trkpt lat="48.69212" lon="1.75829">
        <ele>164.39999389648</ele>
        <time>2012-01-12T09:17:52.000Z</time>
      </trkpt>
      <trkpt lat="48.692" lon="1.75829">
        <ele>164.60000610352</ele>
        <time>2012-01-12T09:18:01.000Z</time>
      </trkpt>
      <trkpt lat="48.69189" lon="1.75829">
        <ele>164.60000610352</ele>
        <time>2012-01-12T09:18:09.000Z</time>
      </trkpt>
      <trkpt lat="48.69181" lon="1.75828">
        <ele>164.80000305176</ele>
        <time>2012-01-12T09:18:16.000Z</time>
      </trkpt>
      <trkpt lat="48.69172" lon="1.7583">
        <ele>165</ele>
        <time>2012-01-12T09:18:22.000Z</time>
      </trkpt>
      <trkpt lat="48.6917" lon="1.7583">
        <ele>165</ele>
        <time>2012-01-12T09:18:23.000Z</time>
      </trkpt>
      <trkpt lat="48.69161" lon="1.7583">
        <ele>165</ele>
        <time>2012-01-12T09:18:29.000Z</time>
      </trkpt>
      <trkpt lat="48.69146" lon="1.7583">
        <ele>165.19999694824</ele>
        <time>2012-01-12T09:18:38.000Z</time>
      </trkpt>
      <trkpt lat="48.69138" lon="1.75831">
        <ele>165.39999389648</ele>
        <time>2012-01-12T09:18:43.000Z</time>
      </trkpt>
      <trkpt lat="48.69127" lon="1.75832">
        <ele>165.39999389648</ele>
        <time>2012-01-12T09:18:50.000Z</time>
      </trkpt>
      <trkpt lat="48.69118" lon="1.75832">
        <ele>165.60000610352</ele>
        <time>2012-01-12T09:18:56.000Z</time>
      </trkpt>
      <trkpt lat="48.69107" lon="1.75831">
        <ele>165.80000305176</ele>
        <time>2012-01-12T09:19:02.000Z</time>
      </trkpt>
      <trkpt lat="48.69097" lon="1.75828">
        <ele>165.80000305176</ele>
        <time>2012-01-12T09:19:08.000Z</time>
      </trkpt>
      <trkpt lat="48.69087" lon="1.75824">
        <ele>166</ele>
        <time>2012-01-12T09:19:15.000Z</time>
      </trkpt>
      <trkpt lat="48.69074" lon="1.75818">
        <ele>166</ele>
        <time>2012-01-12T09:19:23.000Z</time>
      </trkpt>
      <trkpt lat="48.69064" lon="1.75813">
        <ele>166.19999694824</ele>
        <time>2012-01-12T09:19:30.000Z</time>
      </trkpt>
      <trkpt lat="48.69051" lon="1.75808">
        <ele>166.19999694824</ele>
        <time>2012-01-12T09:19:38.000Z</time>
      </trkpt>
      <trkpt lat="48.69036" lon="1.75801">
        <ele>166.19999694824</ele>
        <time>2012-01-12T09:19:48.000Z</time>
      </trkpt>
      <trkpt lat="48.69023" lon="1.75794">
        <ele>166</ele>
        <time>2012-01-12T09:19:57.000Z</time>
      </trkpt>
      <trkpt lat="48.6901" lon="1.7579">
        <ele>166</ele>
        <time>2012-01-12T09:20:05.000Z</time>
      </trkpt>
      <trkpt lat="48.68993" lon="1.75789">
        <ele>166</ele>
        <time>2012-01-12T09:20:16.000Z</time>
      </trkpt>
      <trkpt lat="48.6898" lon="1.7579">
        <ele>166</ele>
        <time>2012-01-12T09:20:24.000Z</time>
      </trkpt>
      <trkpt lat="48.6897" lon="1.75796">
        <ele>166.19999694824</ele>
        <time>2012-01-12T09:20:31.000Z</time>
      </trkpt>
      <trkpt lat="48.6896" lon="1.758">
        <ele>166.39999389648</ele>
        <time>2012-01-12T09:20:37.000Z</time>
      </trkpt>
      <trkpt lat="48.68946" lon="1.75806">
        <ele>166.60000610352</ele>
        <time>2012-01-12T09:20:46.000Z</time>
      </trkpt>
      <trkpt lat="48.68936" lon="1.75807">
        <ele>166.60000610352</ele>
        <time>2012-01-12T09:20:52.000Z</time>
      </trkpt>
      <trkpt lat="48.68926" lon="1.75808">
        <ele>166.60000610352</ele>
        <time>2012-01-12T09:20:58.000Z</time>
      </trkpt>
      <trkpt lat="48.68913" lon="1.75807">
        <ele>166.60000610352</ele>
        <time>2012-01-12T09:21:07.000Z</time>
      </trkpt>
      <trkpt lat="48.68902" lon="1.75805">
        <ele>166.19999694824</ele>
        <time>2012-01-12T09:21:14.000Z</time>
      </trkpt>
      <trkpt lat="48.68891" lon="1.75803">
        <ele>165.80000305176</ele>
        <time>2012-01-12T09:21:21.000Z</time>
      </trkpt>
      <trkpt lat="48.68886" lon="1.75799">
        <ele>165.60000610352</ele>
        <time>2012-01-12T09:21:24.000Z</time>
      </trkpt>
      <trkpt lat="48.68876" lon="1.75796">
        <ele>165</ele>
        <time>2012-01-12T09:21:31.000Z</time>
      </trkpt>
      <trkpt lat="48.68863" lon="1.75793">
        <ele>164.60000610352</ele>
        <time>2012-01-12T09:21:37.000Z</time>
      </trkpt>
      <trkpt lat="48.68853" lon="1.75795">
        <ele>164.19999694824</ele>
        <time>2012-01-12T09:21:43.000Z</time>
      </trkpt>
      <trkpt lat="48.68846" lon="1.75796">
        <ele>164</ele>
        <time>2012-01-12T09:21:48.000Z</time>
      </trkpt>
      <trkpt lat="48.68835" lon="1.75797">
        <ele>163.60000610352</ele>
        <time>2012-01-12T09:21:54.000Z</time>
      </trkpt>
      <trkpt lat="48.68826" lon="1.75792">
        <ele>163.19999694824</ele>
        <time>2012-01-12T09:22:00.000Z</time>
      </trkpt>
      <trkpt lat="48.68815" lon="1.75789">
        <ele>163</ele>
        <time>2012-01-12T09:22:06.000Z</time>
      </trkpt>
      <trkpt lat="48.6881" lon="1.75788">
        <ele>162.80000305176</ele>
        <time>2012-01-12T09:22:09.000Z</time>
      </trkpt>
      <trkpt lat="48.68799" lon="1.75784">
        <ele>162.39999389648</ele>
        <time>2012-01-12T09:22:16.000Z</time>
      </trkpt>
      <trkpt lat="48.68788" lon="1.7578">
        <ele>162</ele>
        <time>2012-01-12T09:22:23.000Z</time>
      </trkpt>
      <trkpt lat="48.68776" lon="1.75779">
        <ele>161.80000305176</ele>
        <time>2012-01-12T09:22:31.000Z</time>
      </trkpt>
      <trkpt lat="48.68765" lon="1.75778">
        <ele>161.39999389648</ele>
        <time>2012-01-12T09:22:37.000Z</time>
      </trkpt>
      <trkpt lat="48.68752" lon="1.75781">
        <ele>161</ele>
        <time>2012-01-12T09:22:44.000Z</time>
      </trkpt>
      <trkpt lat="48.68738" lon="1.75784">
        <ele>160.60000610352</ele>
        <time>2012-01-12T09:22:52.000Z</time>
      </trkpt>
      <trkpt lat="48.68727" lon="1.75787">
        <ele>160.39999389648</ele>
        <time>2012-01-12T09:23:00.000Z</time>
      </trkpt>
      <trkpt lat="48.68714" lon="1.75788">
        <ele>160</ele>
        <time>2012-01-12T09:23:08.000Z</time>
      </trkpt>
      <trkpt lat="48.68703" lon="1.75793">
        <ele>159.60000610352</ele>
        <time>2012-01-12T09:23:15.000Z</time>
      </trkpt>
      <trkpt lat="48.68688" lon="1.75796">
        <ele>159</ele>
        <time>2012-01-12T09:23:24.000Z</time>
      </trkpt>
      <trkpt lat="48.68675" lon="1.75796">
        <ele>158.80000305176</ele>
        <time>2012-01-12T09:23:31.000Z</time>
      </trkpt>
      <trkpt lat="48.68661" lon="1.75794">
        <ele>158.19999694824</ele>
        <time>2012-01-12T09:23:38.000Z</time>
      </trkpt>
      <trkpt lat="48.68645" lon="1.7579">
        <ele>157.60000610352</ele>
        <time>2012-01-12T09:23:47.000Z</time>
      </trkpt>
      <trkpt lat="48.68632" lon="1.75789">
        <ele>157</ele>
        <time>2012-01-12T09:23:54.000Z</time>
      </trkpt>
      <trkpt lat="48.68621" lon="1.75792">
        <ele>156.60000610352</ele>
        <time>2012-01-12T09:24:01.000Z</time>
      </trkpt>
      <trkpt lat="48.68608" lon="1.75791">
        <ele>156</ele>
        <time>2012-01-12T09:24:10.000Z</time>
      </trkpt>
      <trkpt lat="48.68598" lon="1.75795">
        <ele>155.60000610352</ele>
        <time>2012-01-12T09:24:17.000Z</time>
      </trkpt>
      <trkpt lat="48.68587" lon="1.75805">
        <ele>154.80000305176</ele>
        <time>2012-01-12T09:24:25.000Z</time>
      </trkpt>
      <trkpt lat="48.68577" lon="1.75809">
        <ele>154.39999389648</ele>
        <time>2012-01-12T09:24:32.000Z</time>
      </trkpt>
      <trkpt lat="48.68568" lon="1.75812">
        <ele>154</ele>
        <time>2012-01-12T09:24:39.000Z</time>
      </trkpt>
      <trkpt lat="48.68562" lon="1.75814">
        <ele>153.80000305176</ele>
        <time>2012-01-12T09:24:43.000Z</time>
      </trkpt>
      <trkpt lat="48.68556" lon="1.75814">
        <ele>153.80000305176</ele>
        <time>2012-01-12T09:24:47.000Z</time>
      </trkpt>
      <trkpt lat="48.68549" lon="1.75814">
        <ele>153.60000610352</ele>
        <time>2012-01-12T09:24:52.000Z</time>
      </trkpt>
      <trkpt lat="48.68545" lon="1.75809">
        <ele>153.60000610352</ele>
        <time>2012-01-12T09:24:55.000Z</time>
      </trkpt>
      <trkpt lat="48.68544" lon="1.75805">
        <ele>153.60000610352</ele>
        <time>2012-01-12T09:24:57.000Z</time>
      </trkpt>
      <trkpt lat="48.68541" lon="1.75789">
        <ele>153.80000305176</ele>
        <time>2012-01-12T09:25:02.000Z</time>
      </trkpt>
      <trkpt lat="48.6854" lon="1.75786">
        <ele>153.80000305176</ele>
        <time>2012-01-12T09:25:03.000Z</time>
      </trkpt>
      <trkpt lat="48.68537" lon="1.75768">
        <ele>154</ele>
        <time>2012-01-12T09:25:09.000Z</time>
      </trkpt>
      <trkpt lat="48.68536" lon="1.75759">
        <ele>154.19999694824</ele>
        <time>2012-01-12T09:25:13.000Z</time>
      </trkpt>
      <trkpt lat="48.68533" lon="1.75745">
        <ele>154.39999389648</ele>
        <time>2012-01-12T09:25:19.000Z</time>
      </trkpt>
      <trkpt lat="48.68533" lon="1.75726">
        <ele>154.80000305176</ele>
        <time>2012-01-12T09:25:26.000Z</time>
      </trkpt>
      <trkpt lat="48.68532" lon="1.75713">
        <ele>155</ele>
        <time>2012-01-12T09:25:31.000Z</time>
      </trkpt>
      <trkpt lat="48.6853" lon="1.75704">
        <ele>155.19999694824</ele>
        <time>2012-01-12T09:25:35.000Z</time>
      </trkpt>
      <trkpt lat="48.68529" lon="1.75692">
        <ele>155.39999389648</ele>
        <time>2012-01-12T09:25:40.000Z</time>
      </trkpt>
      <trkpt lat="48.68526" lon="1.75678">
        <ele>155.60000610352</ele>
        <time>2012-01-12T09:25:46.000Z</time>
      </trkpt>
      <trkpt lat="48.68524" lon="1.75665">
        <ele>155.80000305176</ele>
        <time>2012-01-12T09:25:52.000Z</time>
      </trkpt>
      <trkpt lat="48.68523" lon="1.7565">
        <ele>155.80000305176</ele>
        <time>2012-01-12T09:25:58.000Z</time>
      </trkpt>
      <trkpt lat="48.68521" lon="1.75639">
        <ele>155.80000305176</ele>
        <time>2012-01-12T09:26:03.000Z</time>
      </trkpt>
      <trkpt lat="48.68518" lon="1.75622">
        <ele>155.80000305176</ele>
        <time>2012-01-12T09:26:10.000Z</time>
      </trkpt>
      <trkpt lat="48.68517" lon="1.75606">
        <ele>155.80000305176</ele>
        <time>2012-01-12T09:26:17.000Z</time>
      </trkpt>
      <trkpt lat="48.68514" lon="1.75588">
        <ele>155.60000610352</ele>
        <time>2012-01-12T09:26:25.000Z</time>
      </trkpt>
      <trkpt lat="48.68511" lon="1.75574">
        <ele>156</ele>
        <time>2012-01-12T09:26:30.000Z</time>
      </trkpt>
      <trkpt lat="48.68508" lon="1.75568">
        <ele>156</ele>
        <time>2012-01-12T09:26:32.000Z</time>
      </trkpt>
      <trkpt lat="48.68508" lon="1.75552">
        <ele>156.80000305176</ele>
        <time>2012-01-12T09:26:40.000Z</time>
      </trkpt>
      <trkpt lat="48.68508" lon="1.75548">
        <ele>157</ele>
        <time>2012-01-12T09:26:42.000Z</time>
      </trkpt>
      <trkpt lat="48.68505" lon="1.75532">
        <ele>157.60000610352</ele>
        <time>2012-01-12T09:26:49.000Z</time>
      </trkpt>
      <trkpt lat="48.685" lon="1.75517">
        <ele>158.19999694824</ele>
        <time>2012-01-12T09:26:55.000Z</time>
      </trkpt>
      <trkpt lat="48.685" lon="1.75504">
        <ele>158.80000305176</ele>
        <time>2012-01-12T09:27:00.000Z</time>
      </trkpt>
      <trkpt lat="48.68497" lon="1.75497">
        <ele>159.19999694824</ele>
        <time>2012-01-12T09:27:03.000Z</time>
      </trkpt>
      <trkpt lat="48.68493" lon="1.75485">
        <ele>160</ele>
        <time>2012-01-12T09:27:09.000Z</time>
      </trkpt>
      <trkpt lat="48.68493" lon="1.75477">
        <ele>160.60000610352</ele>
        <time>2012-01-12T09:27:13.000Z</time>
      </trkpt>
      <trkpt lat="48.68492" lon="1.75457">
        <ele>161.80000305176</ele>
        <time>2012-01-12T09:27:22.000Z</time>
      </trkpt>
      <trkpt lat="48.6849" lon="1.75442">
        <ele>162.60000610352</ele>
        <time>2012-01-12T09:27:28.000Z</time>
      </trkpt>
      <trkpt lat="48.68489" lon="1.7544">
        <ele>162.80000305176</ele>
        <time>2012-01-12T09:27:29.000Z</time>
      </trkpt>
      <trkpt lat="48.68488" lon="1.75428">
        <ele>163.39999389648</ele>
        <time>2012-01-12T09:27:35.000Z</time>
      </trkpt>
      <trkpt lat="48.68486" lon="1.75421">
        <ele>164</ele>
        <time>2012-01-12T09:27:39.000Z</time>
      </trkpt>
      <trkpt lat="48.68482" lon="1.75409">
        <ele>164.60000610352</ele>
        <time>2012-01-12T09:27:45.000Z</time>
      </trkpt>
      <trkpt lat="48.6848" lon="1.75398">
        <ele>165.19999694824</ele>
        <time>2012-01-12T09:27:50.000Z</time>
      </trkpt>
      <trkpt lat="48.68478" lon="1.75388">
        <ele>165.60000610352</ele>
        <time>2012-01-12T09:27:54.000Z</time>
      </trkpt>
      <trkpt lat="48.68477" lon="1.75367">
        <ele>166.60000610352</ele>
        <time>2012-01-12T09:28:02.000Z</time>
      </trkpt>
      <trkpt lat="48.68477" lon="1.75361">
        <ele>167</ele>
        <time>2012-01-12T09:28:04.000Z</time>
      </trkpt>
      <trkpt lat="48.68477" lon="1.75346">
        <ele>167.60000610352</ele>
        <time>2012-01-12T09:28:11.000Z</time>
      </trkpt>
      <trkpt lat="48.68475" lon="1.75335">
        <ele>168.19999694824</ele>
        <time>2012-01-12T09:28:16.000Z</time>
      </trkpt>
      <trkpt lat="48.68473" lon="1.75327">
        <ele>168.39999389648</ele>
        <time>2012-01-12T09:28:19.000Z</time>
      </trkpt>
      <trkpt lat="48.68474" lon="1.75317">
        <ele>168.60000610352</ele>
        <time>2012-01-12T09:28:25.000Z</time>
      </trkpt>
      <trkpt lat="48.68474" lon="1.75303">
        <ele>168.60000610352</ele>
        <time>2012-01-12T09:28:30.000Z</time>
      </trkpt>
      <trkpt lat="48.68475" lon="1.75285">
        <ele>168.80000305176</ele>
        <time>2012-01-12T09:28:37.000Z</time>
      </trkpt>
      <trkpt lat="48.68475" lon="1.75276">
        <ele>169</ele>
        <time>2012-01-12T09:28:42.000Z</time>
      </trkpt>
      <trkpt lat="48.68475" lon="1.75264">
        <ele>169.19999694824</ele>
        <time>2012-01-12T09:28:47.000Z</time>
      </trkpt>
      <trkpt lat="48.68472" lon="1.75256">
        <ele>169.19999694824</ele>
        <time>2012-01-12T09:28:51.000Z</time>
      </trkpt>
      <trkpt lat="48.68466" lon="1.75242">
        <ele>169.39999389648</ele>
        <time>2012-01-12T09:28:57.000Z</time>
      </trkpt>
      <trkpt lat="48.68464" lon="1.75227">
        <ele>169.39999389648</ele>
        <time>2012-01-12T09:29:04.000Z</time>
      </trkpt>
      <trkpt lat="48.68464" lon="1.75214">
        <ele>169.39999389648</ele>
        <time>2012-01-12T09:29:10.000Z</time>
      </trkpt>
      <trkpt lat="48.68465" lon="1.75212">
        <ele>169.39999389648</ele>
        <time>2012-01-12T09:29:11.000Z</time>
      </trkpt>
      <trkpt lat="48.68465" lon="1.75206">
        <ele>169.60000610352</ele>
        <time>2012-01-12T09:29:14.000Z</time>
      </trkpt>
      <trkpt lat="48.68461" lon="1.75192">
        <ele>169.60000610352</ele>
        <time>2012-01-12T09:29:22.000Z</time>
      </trkpt>
      <trkpt lat="48.6846" lon="1.75188">
        <ele>169.60000610352</ele>
        <time>2012-01-12T09:29:24.000Z</time>
      </trkpt>
      <trkpt lat="48.68459" lon="1.7518">
        <ele>169.60000610352</ele>
        <time>2012-01-12T09:29:28.000Z</time>
      </trkpt>
      <trkpt lat="48.68456" lon="1.75166">
        <ele>169.39999389648</ele>
        <time>2012-01-12T09:29:35.000Z</time>
      </trkpt>
      <trkpt lat="48.68454" lon="1.75163">
        <ele>169.39999389648</ele>
        <time>2012-01-12T09:29:37.000Z</time>
      </trkpt>
      <trkpt lat="48.68451" lon="1.75151">
        <ele>169.39999389648</ele>
        <time>2012-01-12T09:29:43.000Z</time>
      </trkpt>
      <trkpt lat="48.68451" lon="1.75141">
        <ele>169.19999694824</ele>
        <time>2012-01-12T09:29:48.000Z</time>
      </trkpt>
      <trkpt lat="48.68451" lon="1.75127">
        <ele>169.19999694824</ele>
        <time>2012-01-12T09:29:56.000Z</time>
      </trkpt>
      <trkpt lat="48.68452" lon="1.7511">
        <ele>169</ele>
        <time>2012-01-12T09:30:01.000Z</time>
      </trkpt>
      <trkpt lat="48.6845" lon="1.75092">
        <ele>168.80000305176</ele>
        <time>2012-01-12T09:30:08.000Z</time>
      </trkpt>
      <trkpt lat="48.6845" lon="1.75086">
        <ele>168.80000305176</ele>
        <time>2012-01-12T09:30:10.000Z</time>
      </trkpt>
      <trkpt lat="48.68451" lon="1.75074">
        <ele>168.80000305176</ele>
        <time>2012-01-12T09:30:15.000Z</time>
      </trkpt>
      <trkpt lat="48.68453" lon="1.7507">
        <ele>168.80000305176</ele>
        <time>2012-01-12T09:30:17.000Z</time>
      </trkpt>
      <trkpt lat="48.68451" lon="1.7506">
        <ele>168.60000610352</ele>
        <time>2012-01-12T09:30:22.000Z</time>
      </trkpt>
      <trkpt lat="48.6845" lon="1.7505">
        <ele>168.39999389648</ele>
        <time>2012-01-12T09:30:27.000Z</time>
      </trkpt>
      <trkpt lat="48.6845" lon="1.75048">
        <ele>168.39999389648</ele>
        <time>2012-01-12T09:30:28.000Z</time>
      </trkpt>
      <trkpt lat="48.68445" lon="1.75025">
        <ele>168.19999694824</ele>
        <time>2012-01-12T09:30:36.000Z</time>
      </trkpt>
      <trkpt lat="48.68439" lon="1.75004">
        <ele>168</ele>
        <time>2012-01-12T09:30:44.000Z</time>
      </trkpt>
      <trkpt lat="48.68439" lon="1.74999">
        <ele>168</ele>
        <time>2012-01-12T09:30:47.000Z</time>
      </trkpt>
      <trkpt lat="48.68435" lon="1.74992">
        <ele>168</ele>
        <time>2012-01-12T09:30:54.000Z</time>
      </trkpt>
      <trkpt lat="48.68434" lon="1.74989">
        <ele>168</ele>
        <time>2012-01-12T09:30:58.000Z</time>
      </trkpt>
      <trkpt lat="48.68434" lon="1.74987">
        <ele>168</ele>
        <time>2012-01-12T09:30:59.000Z</time>
      </trkpt>
      <trkpt lat="48.68432" lon="1.74963">
        <ele>167.80000305176</ele>
        <time>2012-01-12T09:31:09.000Z</time>
      </trkpt>
      <trkpt lat="48.68433" lon="1.74946">
        <ele>167.60000610352</ele>
        <time>2012-01-12T09:31:17.000Z</time>
      </trkpt>
      <trkpt lat="48.68433" lon="1.74932">
        <ele>167.60000610352</ele>
        <time>2012-01-12T09:31:24.000Z</time>
      </trkpt>
      <trkpt lat="48.68432" lon="1.74917">
        <ele>167.39999389648</ele>
        <time>2012-01-12T09:31:31.000Z</time>
      </trkpt>
      <trkpt lat="48.6843" lon="1.74902">
        <ele>167</ele>
        <time>2012-01-12T09:31:37.000Z</time>
      </trkpt>
      <trkpt lat="48.68429" lon="1.7489">
        <ele>166.80000305176</ele>
        <time>2012-01-12T09:31:42.000Z</time>
      </trkpt>
      <trkpt lat="48.68428" lon="1.74875">
        <ele>166.39999389648</ele>
        <time>2012-01-12T09:31:48.000Z</time>
      </trkpt>
      <trkpt lat="48.68426" lon="1.7486">
        <ele>166</ele>
        <time>2012-01-12T09:31:54.000Z</time>
      </trkpt>
      <trkpt lat="48.68428" lon="1.74851">
        <ele>165.80000305176</ele>
        <time>2012-01-12T09:31:59.000Z</time>
      </trkpt>
      <trkpt lat="48.68426" lon="1.74836">
        <ele>165.39999389648</ele>
        <time>2012-01-12T09:32:05.000Z</time>
      </trkpt>
      <trkpt lat="48.68425" lon="1.74826">
        <ele>165.19999694824</ele>
        <time>2012-01-12T09:32:09.000Z</time>
      </trkpt>
      <trkpt lat="48.6842" lon="1.74811">
        <ele>164.60000610352</ele>
        <time>2012-01-12T09:32:16.000Z</time>
      </trkpt>
      <trkpt lat="48.68419" lon="1.74796">
        <ele>164.19999694824</ele>
        <time>2012-01-12T09:32:22.000Z</time>
      </trkpt>
      <trkpt lat="48.68418" lon="1.74789">
        <ele>164</ele>
        <time>2012-01-12T09:32:25.000Z</time>
      </trkpt>
      <trkpt lat="48.68416" lon="1.74781">
        <ele>163.60000610352</ele>
        <time>2012-01-12T09:32:29.000Z</time>
      </trkpt>
      <trkpt lat="48.68412" lon="1.74758">
        <ele>162.80000305176</ele>
        <time>2012-01-12T09:32:38.000Z</time>
      </trkpt>
      <trkpt lat="48.68411" lon="1.74749">
        <ele>162.39999389648</ele>
        <time>2012-01-12T09:32:42.000Z</time>
      </trkpt>
      <trkpt lat="48.6841" lon="1.74743">
        <ele>162.19999694824</ele>
        <time>2012-01-12T09:32:44.000Z</time>
      </trkpt>
      <trkpt lat="48.68412" lon="1.74735">
        <ele>161.80000305176</ele>
        <time>2012-01-12T09:32:49.000Z</time>
      </trkpt>
      <trkpt lat="48.68411" lon="1.74724">
        <ele>161.19999694824</ele>
        <time>2012-01-12T09:32:54.000Z</time>
      </trkpt>
      <trkpt lat="48.68409" lon="1.74713">
        <ele>160.60000610352</ele>
        <time>2012-01-12T09:32:59.000Z</time>
      </trkpt>
      <trkpt lat="48.68408" lon="1.74708">
        <ele>160.39999389648</ele>
        <time>2012-01-12T09:33:01.000Z</time>
      </trkpt>
      <trkpt lat="48.68406" lon="1.7469">
        <ele>159.19999694824</ele>
        <time>2012-01-12T09:33:09.000Z</time>
      </trkpt>
      <trkpt lat="48.68409" lon="1.74678">
        <ele>159</ele>
        <time>2012-01-12T09:33:14.000Z</time>
      </trkpt>
      <trkpt lat="48.68412" lon="1.7467">
        <ele>158.80000305176</ele>
        <time>2012-01-12T09:33:18.000Z</time>
      </trkpt>
      <trkpt lat="48.68414" lon="1.74663">
        <ele>158.60000610352</ele>
        <time>2012-01-12T09:33:22.000Z</time>
      </trkpt>
      <trkpt lat="48.68419" lon="1.74655">
        <ele>158.60000610352</ele>
        <time>2012-01-12T09:33:26.000Z</time>
      </trkpt>
      <trkpt lat="48.68427" lon="1.74639">
        <ele>158.19999694824</ele>
        <time>2012-01-12T09:33:34.000Z</time>
      </trkpt>
      <trkpt lat="48.68431" lon="1.74622">
        <ele>157.60000610352</ele>
        <time>2012-01-12T09:33:39.000Z</time>
      </trkpt>
      <trkpt lat="48.68431" lon="1.74604">
        <ele>156.60000610352</ele>
        <time>2012-01-12T09:33:45.000Z</time>
      </trkpt>
      <trkpt lat="48.68435" lon="1.74591">
        <ele>156.39999389648</ele>
        <time>2012-01-12T09:33:52.000Z</time>
      </trkpt>
      <trkpt lat="48.68436" lon="1.74585">
        <ele>156.19999694824</ele>
        <time>2012-01-12T09:33:54.000Z</time>
      </trkpt>
      <trkpt lat="48.6844" lon="1.74576">
        <ele>156.19999694824</ele>
        <time>2012-01-12T09:33:59.000Z</time>
      </trkpt>
      <trkpt lat="48.68441" lon="1.74574">
        <ele>156.19999694824</ele>
        <time>2012-01-12T09:34:00.000Z</time>
      </trkpt>
      <trkpt lat="48.68449" lon="1.74562">
        <ele>156.19999694824</ele>
        <time>2012-01-12T09:34:07.000Z</time>
      </trkpt>
      <trkpt lat="48.68459" lon="1.74553">
        <ele>156.60000610352</ele>
        <time>2012-01-12T09:34:13.000Z</time>
      </trkpt>
      <trkpt lat="48.68462" lon="1.7455">
        <ele>156.60000610352</ele>
        <time>2012-01-12T09:34:16.000Z</time>
      </trkpt>
      <trkpt lat="48.68469" lon="1.74544">
        <ele>156.80000305176</ele>
        <time>2012-01-12T09:34:22.000Z</time>
      </trkpt>
      <trkpt lat="48.68479" lon="1.74536">
        <ele>157</ele>
        <time>2012-01-12T09:34:28.000Z</time>
      </trkpt>
      <trkpt lat="48.68483" lon="1.74534">
        <ele>157</ele>
        <time>2012-01-12T09:34:30.000Z</time>
      </trkpt>
      <trkpt lat="48.68494" lon="1.74519">
        <ele>156.39999389648</ele>
        <time>2012-01-12T09:34:38.000Z</time>
      </trkpt>
      <trkpt lat="48.685" lon="1.74513">
        <ele>156.19999694824</ele>
        <time>2012-01-12T09:34:43.000Z</time>
      </trkpt>
      <trkpt lat="48.6851" lon="1.74506">
        <ele>156.39999389648</ele>
        <time>2012-01-12T09:34:49.000Z</time>
      </trkpt>
      <trkpt lat="48.68519" lon="1.74497">
        <ele>156.39999389648</ele>
        <time>2012-01-12T09:34:55.000Z</time>
      </trkpt>
      <trkpt lat="48.68523" lon="1.74493">
        <ele>156.39999389648</ele>
        <time>2012-01-12T09:34:58.000Z</time>
      </trkpt>
      <trkpt lat="48.68531" lon="1.74487">
        <ele>156.60000610352</ele>
        <time>2012-01-12T09:35:03.000Z</time>
      </trkpt>
      <trkpt lat="48.68537" lon="1.74481">
        <ele>156.60000610352</ele>
        <time>2012-01-12T09:35:07.000Z</time>
      </trkpt>
      <trkpt lat="48.68547" lon="1.7447">
        <ele>156.80000305176</ele>
        <time>2012-01-12T09:35:15.000Z</time>
      </trkpt>
      <trkpt lat="48.68552" lon="1.74461">
        <ele>156.60000610352</ele>
        <time>2012-01-12T09:35:21.000Z</time>
      </trkpt>
      <trkpt lat="48.68553" lon="1.74459">
        <ele>156.60000610352</ele>
        <time>2012-01-12T09:35:23.000Z</time>
      </trkpt>
      <trkpt lat="48.68559" lon="1.7445">
        <ele>156.39999389648</ele>
        <time>2012-01-12T09:35:29.000Z</time>
      </trkpt>
      <trkpt lat="48.6856" lon="1.74448">
        <ele>156.19999694824</ele>
        <time>2012-01-12T09:35:30.000Z</time>
      </trkpt>
      <trkpt lat="48.68564" lon="1.74442">
        <ele>156.19999694824</ele>
        <time>2012-01-12T09:35:34.000Z</time>
      </trkpt>
      <trkpt lat="48.68572" lon="1.74426">
        <ele>155.80000305176</ele>
        <time>2012-01-12T09:35:41.000Z</time>
      </trkpt>
      <trkpt lat="48.68577" lon="1.74416">
        <ele>155.39999389648</ele>
        <time>2012-01-12T09:35:46.000Z</time>
      </trkpt>
      <trkpt lat="48.68581" lon="1.74408">
        <ele>155.80000305176</ele>
        <time>2012-01-12T09:35:50.000Z</time>
      </trkpt>
      <trkpt lat="48.68595" lon="1.74394">
        <ele>156.80000305176</ele>
        <time>2012-01-12T09:36:00.000Z</time>
      </trkpt>
      <trkpt lat="48.68601" lon="1.74383">
        <ele>157.19999694824</ele>
        <time>2012-01-12T09:36:07.000Z</time>
      </trkpt>
      <trkpt lat="48.68608" lon="1.74373">
        <ele>157.60000610352</ele>
        <time>2012-01-12T09:36:14.000Z</time>
      </trkpt>
      <trkpt lat="48.68616" lon="1.74364">
        <ele>157.80000305176</ele>
        <time>2012-01-12T09:36:20.000Z</time>
      </trkpt>
      <trkpt lat="48.68623" lon="1.74354">
        <ele>158.19999694824</ele>
        <time>2012-01-12T09:36:26.000Z</time>
      </trkpt>
      <trkpt lat="48.68629" lon="1.74341">
        <ele>158</ele>
        <time>2012-01-12T09:36:33.000Z</time>
      </trkpt>
      <trkpt lat="48.68638" lon="1.74329">
        <ele>158.19999694824</ele>
        <time>2012-01-12T09:36:40.000Z</time>
      </trkpt>
      <trkpt lat="48.68644" lon="1.74321">
        <ele>158.39999389648</ele>
        <time>2012-01-12T09:36:46.000Z</time>
      </trkpt>
      <trkpt lat="48.6865" lon="1.74311">
        <ele>158.60000610352</ele>
        <time>2012-01-12T09:36:52.000Z</time>
      </trkpt>
      <trkpt lat="48.68656" lon="1.74299">
        <ele>158.39999389648</ele>
        <time>2012-01-12T09:36:58.000Z</time>
      </trkpt>
      <trkpt lat="48.68663" lon="1.74294">
        <ele>158.39999389648</ele>
        <time>2012-01-12T09:37:02.000Z</time>
      </trkpt>
      <trkpt lat="48.68678" lon="1.74289">
        <ele>158.80000305176</ele>
        <time>2012-01-12T09:37:10.000Z</time>
      </trkpt>
      <trkpt lat="48.68685" lon="1.74288">
        <ele>159</ele>
        <time>2012-01-12T09:37:15.000Z</time>
      </trkpt>
      <trkpt lat="48.68694" lon="1.74287">
        <ele>159.39999389648</ele>
        <time>2012-01-12T09:37:20.000Z</time>
      </trkpt>
      <trkpt lat="48.68697" lon="1.74286">
        <ele>159.39999389648</ele>
        <time>2012-01-12T09:37:22.000Z</time>
      </trkpt>
      <trkpt lat="48.68705" lon="1.74286">
        <ele>159.60000610352</ele>
        <time>2012-01-12T09:37:28.000Z</time>
      </trkpt>
      <trkpt lat="48.6871" lon="1.74288">
        <ele>160</ele>
        <time>2012-01-12T09:37:31.000Z</time>
      </trkpt>
      <trkpt lat="48.68718" lon="1.74299">
        <ele>161.39999389648</ele>
        <time>2012-01-12T09:37:38.000Z</time>
      </trkpt>
      <trkpt lat="48.68722" lon="1.74303">
        <ele>161.80000305176</ele>
        <time>2012-01-12T09:37:41.000Z</time>
      </trkpt>
      <trkpt lat="48.68728" lon="1.74308">
        <ele>162.60000610352</ele>
        <time>2012-01-12T09:37:45.000Z</time>
      </trkpt>
      <trkpt lat="48.68739" lon="1.74315">
        <ele>164</ele>
        <time>2012-01-12T09:37:52.000Z</time>
      </trkpt>
      <trkpt lat="48.6874" lon="1.74316">
        <ele>164.19999694824</ele>
        <time>2012-01-12T09:37:53.000Z</time>
      </trkpt>
      <trkpt lat="48.68751" lon="1.74321">
        <ele>165.39999389648</ele>
        <time>2012-01-12T09:38:00.000Z</time>
      </trkpt>
      <trkpt lat="48.68761" lon="1.74329">
        <ele>165</ele>
        <time>2012-01-12T09:38:07.000Z</time>
      </trkpt>
      <trkpt lat="48.68762" lon="1.74333">
        <ele>165.19999694824</ele>
        <time>2012-01-12T09:38:09.000Z</time>
      </trkpt>
      <trkpt lat="48.68768" lon="1.7434">
        <ele>164.60000610352</ele>
        <time>2012-01-12T09:38:13.000Z</time>
      </trkpt>
      <trkpt lat="48.68777" lon="1.74355">
        <ele>164</ele>
        <time>2012-01-12T09:38:22.000Z</time>
      </trkpt>
      <trkpt lat="48.68778" lon="1.74372">
        <ele>164.39999389648</ele>
        <time>2012-01-12T09:38:29.000Z</time>
      </trkpt>
      <trkpt lat="48.68778" lon="1.74389">
        <ele>165</ele>
        <time>2012-01-12T09:38:35.000Z</time>
      </trkpt>
      <trkpt lat="48.68774" lon="1.74411">
        <ele>166.39999389648</ele>
        <time>2012-01-12T09:38:43.000Z</time>
      </trkpt>
      <trkpt lat="48.68772" lon="1.74428">
        <ele>166.80000305176</ele>
        <time>2012-01-12T09:38:51.000Z</time>
      </trkpt>
      <trkpt lat="48.6877" lon="1.74443">
        <ele>166.80000305176</ele>
        <time>2012-01-12T09:38:57.000Z</time>
      </trkpt>
      <trkpt lat="48.68762" lon="1.74462">
        <ele>167.60000610352</ele>
        <time>2012-01-12T09:39:05.000Z</time>
      </trkpt>
      <trkpt lat="48.68756" lon="1.74484">
        <ele>168.39999389648</ele>
        <time>2012-01-12T09:39:14.000Z</time>
      </trkpt>
      <trkpt lat="48.68754" lon="1.74493">
        <ele>168.39999389648</ele>
        <time>2012-01-12T09:39:19.000Z</time>
      </trkpt>
      <trkpt lat="48.68751" lon="1.74507">
        <ele>168.80000305176</ele>
        <time>2012-01-12T09:39:26.000Z</time>
      </trkpt>
      <trkpt lat="48.68746" lon="1.74523">
        <ele>168.39999389648</ele>
        <time>2012-01-12T09:39:33.000Z</time>
      </trkpt>
      <trkpt lat="48.68738" lon="1.74539">
        <ele>168.19999694824</ele>
        <time>2012-01-12T09:39:41.000Z</time>
      </trkpt>
      <trkpt lat="48.68731" lon="1.74555">
        <ele>168</ele>
        <time>2012-01-12T09:39:49.000Z</time>
      </trkpt>
      <trkpt lat="48.68727" lon="1.74563">
        <ele>168</ele>
        <time>2012-01-12T09:39:55.000Z</time>
      </trkpt>
      <trkpt lat="48.68721" lon="1.74581">
        <ele>168</ele>
        <time>2012-01-12T09:40:03.000Z</time>
      </trkpt>
      <trkpt lat="48.68719" lon="1.74587">
        <ele>168</ele>
        <time>2012-01-12T09:40:06.000Z</time>
      </trkpt>
      <trkpt lat="48.68716" lon="1.74596">
        <ele>168.19999694824</ele>
        <time>2012-01-12T09:40:11.000Z</time>
      </trkpt>
      <trkpt lat="48.68713" lon="1.74609">
        <ele>168.19999694824</ele>
        <time>2012-01-12T09:40:18.000Z</time>
      </trkpt>
      <trkpt lat="48.6871" lon="1.74621">
        <ele>168.19999694824</ele>
        <time>2012-01-12T09:40:23.000Z</time>
      </trkpt>
      <trkpt lat="48.68705" lon="1.74636">
        <ele>168.39999389648</ele>
        <time>2012-01-12T09:40:30.000Z</time>
      </trkpt>
      <trkpt lat="48.68704" lon="1.74641">
        <ele>168.39999389648</ele>
        <time>2012-01-12T09:40:32.000Z</time>
      </trkpt>
      <trkpt lat="48.687" lon="1.74648">
        <ele>168.39999389648</ele>
        <time>2012-01-12T09:40:36.000Z</time>
      </trkpt>
      <trkpt lat="48.68693" lon="1.74662">
        <ele>168.80000305176</ele>
        <time>2012-01-12T09:40:43.000Z</time>
      </trkpt>
      <trkpt lat="48.68686" lon="1.74676">
        <ele>169</ele>
        <time>2012-01-12T09:40:49.000Z</time>
      </trkpt>
      <trkpt lat="48.68681" lon="1.74691">
        <ele>169.19999694824</ele>
        <time>2012-01-12T09:40:56.000Z</time>
      </trkpt>
      <trkpt lat="48.68678" lon="1.74702">
        <ele>169.19999694824</ele>
        <time>2012-01-12T09:41:01.000Z</time>
      </trkpt>
      <trkpt lat="48.68677" lon="1.74711">
        <ele>169.19999694824</ele>
        <time>2012-01-12T09:41:05.000Z</time>
      </trkpt>
      <trkpt lat="48.68683" lon="1.74721">
        <ele>168.80000305176</ele>
        <time>2012-01-12T09:41:11.000Z</time>
      </trkpt>
      <trkpt lat="48.68689" lon="1.74728">
        <ele>168.19999694824</ele>
        <time>2012-01-12T09:41:19.000Z</time>
      </trkpt>
      <trkpt lat="48.6869" lon="1.74732">
        <ele>168</ele>
        <time>2012-01-12T09:41:25.000Z</time>
      </trkpt>
      <trkpt lat="48.68694" lon="1.7474">
        <ele>167.60000610352</ele>
        <time>2012-01-12T09:41:31.000Z</time>
      </trkpt>
      <trkpt lat="48.68695" lon="1.74741">
        <ele>167.39999389648</ele>
        <time>2012-01-12T09:41:32.000Z</time>
      </trkpt>
      <trkpt lat="48.68701" lon="1.74752">
        <ele>166.60000610352</ele>
        <time>2012-01-12T09:41:38.000Z</time>
      </trkpt>
      <trkpt lat="48.68703" lon="1.74756">
        <ele>166.19999694824</ele>
        <time>2012-01-12T09:41:40.000Z</time>
      </trkpt>
      <trkpt lat="48.68709" lon="1.74768">
        <ele>165.19999694824</ele>
        <time>2012-01-12T09:41:47.000Z</time>
      </trkpt>
      <trkpt lat="48.68714" lon="1.74773">
        <ele>164.60000610352</ele>
        <time>2012-01-12T09:41:50.000Z</time>
      </trkpt>
      <trkpt lat="48.68719" lon="1.74789">
        <ele>163.39999389648</ele>
        <time>2012-01-12T09:41:57.000Z</time>
      </trkpt>
      <trkpt lat="48.68725" lon="1.74799">
        <ele>162.39999389648</ele>
        <time>2012-01-12T09:42:02.000Z</time>
      </trkpt>
      <trkpt lat="48.6873" lon="1.7481">
        <ele>161.60000610352</ele>
        <time>2012-01-12T09:42:08.000Z</time>
      </trkpt>
      <trkpt lat="48.68735" lon="1.74822">
        <ele>160.80000305176</ele>
        <time>2012-01-12T09:42:14.000Z</time>
      </trkpt>
      <trkpt lat="48.68742" lon="1.74834">
        <ele>159.80000305176</ele>
        <time>2012-01-12T09:42:20.000Z</time>
      </trkpt>
      <trkpt lat="48.68748" lon="1.74849">
        <ele>158.80000305176</ele>
        <time>2012-01-12T09:42:27.000Z</time>
      </trkpt>
      <trkpt lat="48.68752" lon="1.74858">
        <ele>158.39999389648</ele>
        <time>2012-01-12T09:42:31.000Z</time>
      </trkpt>
      <trkpt lat="48.68756" lon="1.74865">
        <ele>158</ele>
        <time>2012-01-12T09:42:37.000Z</time>
      </trkpt>
      <trkpt lat="48.68759" lon="1.74874">
        <ele>157.80000305176</ele>
        <time>2012-01-12T09:42:41.000Z</time>
      </trkpt>
      <trkpt lat="48.68768" lon="1.74884">
        <ele>157.39999389648</ele>
        <time>2012-01-12T09:42:46.000Z</time>
      </trkpt>
      <trkpt lat="48.68773" lon="1.74892">
        <ele>157.19999694824</ele>
        <time>2012-01-12T09:42:51.000Z</time>
      </trkpt>
      <trkpt lat="48.68778" lon="1.74904">
        <ele>156.80000305176</ele>
        <time>2012-01-12T09:42:56.000Z</time>
      </trkpt>
      <trkpt lat="48.68782" lon="1.74918">
        <ele>156.60000610352</ele>
        <time>2012-01-12T09:43:02.000Z</time>
      </trkpt>
      <trkpt lat="48.68783" lon="1.7492">
        <ele>156.60000610352</ele>
        <time>2012-01-12T09:43:03.000Z</time>
      </trkpt>
      <trkpt lat="48.6879" lon="1.74936">
        <ele>156.19999694824</ele>
        <time>2012-01-12T09:43:11.000Z</time>
      </trkpt>
      <trkpt lat="48.688" lon="1.74951">
        <ele>156</ele>
        <time>2012-01-12T09:43:19.000Z</time>
      </trkpt>
      <trkpt lat="48.68802" lon="1.74955">
        <ele>156</ele>
        <time>2012-01-12T09:43:21.000Z</time>
      </trkpt>
      <trkpt lat="48.68805" lon="1.7497">
        <ele>155.80000305176</ele>
        <time>2012-01-12T09:43:27.000Z</time>
      </trkpt>
      <trkpt lat="48.68807" lon="1.74974">
        <ele>155.60000610352</ele>
        <time>2012-01-12T09:43:29.000Z</time>
      </trkpt>
      <trkpt lat="48.68815" lon="1.74989">
        <ele>155.39999389648</ele>
        <time>2012-01-12T09:43:36.000Z</time>
      </trkpt>
      <trkpt lat="48.6882" lon="1.75">
        <ele>155.19999694824</ele>
        <time>2012-01-12T09:43:40.000Z</time>
      </trkpt>
      <trkpt lat="48.68827" lon="1.75008">
        <ele>155</ele>
        <time>2012-01-12T09:43:45.000Z</time>
      </trkpt>
      <trkpt lat="48.68837" lon="1.75025">
        <ele>155</ele>
        <time>2012-01-12T09:43:53.000Z</time>
      </trkpt>
      <trkpt lat="48.68845" lon="1.7504">
        <ele>154.80000305176</ele>
        <time>2012-01-12T09:44:00.000Z</time>
      </trkpt>
      <trkpt lat="48.68849" lon="1.75051">
        <ele>154.80000305176</ele>
        <time>2012-01-12T09:44:06.000Z</time>
      </trkpt>
      <trkpt lat="48.68855" lon="1.75062">
        <ele>154.80000305176</ele>
        <time>2012-01-12T09:44:12.000Z</time>
      </trkpt>
      <trkpt lat="48.68863" lon="1.75082">
        <ele>154.60000610352</ele>
        <time>2012-01-12T09:44:20.000Z</time>
      </trkpt>
      <trkpt lat="48.68869" lon="1.75097">
        <ele>154.60000610352</ele>
        <time>2012-01-12T09:44:27.000Z</time>
      </trkpt>
      <trkpt lat="48.68877" lon="1.75115">
        <ele>154.19999694824</ele>
        <time>2012-01-12T09:44:32.000Z</time>
      </trkpt>
      <trkpt lat="48.68883" lon="1.75128">
        <ele>154</ele>
        <time>2012-01-12T09:44:36.000Z</time>
      </trkpt>
      <trkpt lat="48.68884" lon="1.7513">
        <ele>154</ele>
        <time>2012-01-12T09:44:37.000Z</time>
      </trkpt>
      <trkpt lat="48.6889" lon="1.75146">
        <ele>153.80000305176</ele>
        <time>2012-01-12T09:44:43.000Z</time>
      </trkpt>
      <trkpt lat="48.68891" lon="1.75151">
        <ele>153.80000305176</ele>
        <time>2012-01-12T09:44:45.000Z</time>
      </trkpt>
      <trkpt lat="48.68896" lon="1.75168">
        <ele>153.39999389648</ele>
        <time>2012-01-12T09:44:52.000Z</time>
      </trkpt>
      <trkpt lat="48.68902" lon="1.75181">
        <ele>153.39999389648</ele>
        <time>2012-01-12T09:44:58.000Z</time>
      </trkpt>
      <trkpt lat="48.68911" lon="1.75193">
        <ele>153.19999694824</ele>
        <time>2012-01-12T09:45:04.000Z</time>
      </trkpt>
      <trkpt lat="48.68917" lon="1.75204">
        <ele>153</ele>
        <time>2012-01-12T09:45:09.000Z</time>
      </trkpt>
      <trkpt lat="48.68923" lon="1.75215">
        <ele>153.19999694824</ele>
        <time>2012-01-12T09:45:14.000Z</time>
      </trkpt>
      <trkpt lat="48.6893" lon="1.75226">
        <ele>153.19999694824</ele>
        <time>2012-01-12T09:45:20.000Z</time>
      </trkpt>
      <trkpt lat="48.68937" lon="1.75239">
        <ele>153.39999389648</ele>
        <time>2012-01-12T09:45:26.000Z</time>
      </trkpt>
      <trkpt lat="48.68944" lon="1.75254">
        <ele>153.80000305176</ele>
        <time>2012-01-12T09:45:34.000Z</time>
      </trkpt>
      <trkpt lat="48.68953" lon="1.75267">
        <ele>154.19999694824</ele>
        <time>2012-01-12T09:45:41.000Z</time>
      </trkpt>
      <trkpt lat="48.68958" lon="1.75279">
        <ele>154.60000610352</ele>
        <time>2012-01-12T09:45:46.000Z</time>
      </trkpt>
      <trkpt lat="48.68958" lon="1.75284">
        <ele>154.60000610352</ele>
        <time>2012-01-12T09:45:47.000Z</time>
      </trkpt>
      <trkpt lat="48.68963" lon="1.75293">
        <ele>154.80000305176</ele>
        <time>2012-01-12T09:45:51.000Z</time>
      </trkpt>
      <trkpt lat="48.68966" lon="1.75296">
        <ele>155</ele>
        <time>2012-01-12T09:45:55.000Z</time>
      </trkpt>
      <trkpt lat="48.68972" lon="1.75304">
        <ele>155.39999389648</ele>
        <time>2012-01-12T09:46:02.000Z</time>
      </trkpt>
      <trkpt lat="48.68972" lon="1.75304">
        <ele>155.39999389648</ele>
        <time>2012-01-12T09:46:03.000Z</time>
      </trkpt>
      <trkpt lat="48.68981" lon="1.75314">
        <ele>156</ele>
        <time>2012-01-12T09:46:45.000Z</time>
      </trkpt>
      <trkpt lat="48.68986" lon="1.75324">
        <ele>156.19999694824</ele>
        <time>2012-01-12T09:46:50.000Z</time>
      </trkpt>
      <trkpt lat="48.68994" lon="1.75333">
        <ele>156.80000305176</ele>
        <time>2012-01-12T09:46:56.000Z</time>
      </trkpt>
      <trkpt lat="48.69001" lon="1.75345">
        <ele>157.19999694824</ele>
        <time>2012-01-12T09:47:03.000Z</time>
      </trkpt>
      <trkpt lat="48.69008" lon="1.75356">
        <ele>157.39999389648</ele>
        <time>2012-01-12T09:47:09.000Z</time>
      </trkpt>
      <trkpt lat="48.69015" lon="1.75372">
        <ele>157.39999389648</ele>
        <time>2012-01-12T09:47:17.000Z</time>
      </trkpt>
      <trkpt lat="48.69022" lon="1.75387">
        <ele>157.39999389648</ele>
        <time>2012-01-12T09:47:24.000Z</time>
      </trkpt>
      <trkpt lat="48.6903" lon="1.754">
        <ele>157.39999389648</ele>
        <time>2012-01-12T09:47:31.000Z</time>
      </trkpt>
      <trkpt lat="48.6904" lon="1.75416">
        <ele>157</ele>
        <time>2012-01-12T09:47:40.000Z</time>
      </trkpt>
      <trkpt lat="48.69051" lon="1.75435">
        <ele>157.19999694824</ele>
        <time>2012-01-12T09:47:50.000Z</time>
      </trkpt>
      <trkpt lat="48.69058" lon="1.75447">
        <ele>157.19999694824</ele>
        <time>2012-01-12T09:47:57.000Z</time>
      </trkpt>
      <trkpt lat="48.69059" lon="1.75448">
        <ele>157.19999694824</ele>
        <time>2012-01-12T09:47:58.000Z</time>
      </trkpt>
      <trkpt lat="48.69071" lon="1.7547">
        <ele>157.19999694824</ele>
        <time>2012-01-12T09:48:09.000Z</time>
      </trkpt>
      <trkpt lat="48.6908" lon="1.75488">
        <ele>157</ele>
        <time>2012-01-12T09:48:19.000Z</time>
      </trkpt>
      <trkpt lat="48.69089" lon="1.75504">
        <ele>157.19999694824</ele>
        <time>2012-01-12T09:48:28.000Z</time>
      </trkpt>
      <trkpt lat="48.691" lon="1.75522">
        <ele>157.80000305176</ele>
        <time>2012-01-12T09:48:38.000Z</time>
      </trkpt>
      <trkpt lat="48.69109" lon="1.75537">
        <ele>158</ele>
        <time>2012-01-12T09:48:47.000Z</time>
      </trkpt>
      <trkpt lat="48.69119" lon="1.75553">
        <ele>158.19999694824</ele>
        <time>2012-01-12T09:48:56.000Z</time>
      </trkpt>
      <trkpt lat="48.69129" lon="1.75569">
        <ele>158</ele>
        <time>2012-01-12T09:49:05.000Z</time>
      </trkpt>
      <trkpt lat="48.69137" lon="1.75586">
        <ele>157.80000305176</ele>
        <time>2012-01-12T09:49:13.000Z</time>
      </trkpt>
      <trkpt lat="48.69145" lon="1.75598">
        <ele>158.19999694824</ele>
        <time>2012-01-12T09:49:20.000Z</time>
      </trkpt>
      <trkpt lat="48.69158" lon="1.75616">
        <ele>158.80000305176</ele>
        <time>2012-01-12T09:49:30.000Z</time>
      </trkpt>
      <trkpt lat="48.69167" lon="1.75632">
        <ele>159.60000610352</ele>
        <time>2012-01-12T09:49:39.000Z</time>
      </trkpt>
      <trkpt lat="48.69178" lon="1.75648">
        <ele>160.39999389648</ele>
        <time>2012-01-12T09:49:48.000Z</time>
      </trkpt>
      <trkpt lat="48.69187" lon="1.75663">
        <ele>161</ele>
        <time>2012-01-12T09:49:56.000Z</time>
      </trkpt>
      <trkpt lat="48.69193" lon="1.75677">
        <ele>161.39999389648</ele>
        <time>2012-01-12T09:50:03.000Z</time>
      </trkpt>
      <trkpt lat="48.69206" lon="1.75691">
        <ele>161.19999694824</ele>
        <time>2012-01-12T09:50:11.000Z</time>
      </trkpt>
      <trkpt lat="48.69213" lon="1.75705">
        <ele>161.39999389648</ele>
        <time>2012-01-12T09:50:18.000Z</time>
      </trkpt>
      <trkpt lat="48.69224" lon="1.75723">
        <ele>161.60000610352</ele>
        <time>2012-01-12T09:50:27.000Z</time>
      </trkpt>
      <trkpt lat="48.69232" lon="1.75738">
        <ele>161.60000610352</ele>
        <time>2012-01-12T09:50:35.000Z</time>
      </trkpt>
      <trkpt lat="48.69238" lon="1.75751">
        <ele>161.60000610352</ele>
        <time>2012-01-12T09:50:42.000Z</time>
      </trkpt>
      <trkpt lat="48.69242" lon="1.75758">
        <ele>161.60000610352</ele>
        <time>2012-01-12T09:50:46.000Z</time>
      </trkpt>
      <trkpt lat="48.69252" lon="1.75769">
        <ele>161.80000305176</ele>
        <time>2012-01-12T09:50:53.000Z</time>
      </trkpt>
      <trkpt lat="48.69259" lon="1.75781">
        <ele>162.39999389648</ele>
        <time>2012-01-12T09:51:00.000Z</time>
      </trkpt>
      <trkpt lat="48.69268" lon="1.75794">
        <ele>163</ele>
        <time>2012-01-12T09:51:07.000Z</time>
      </trkpt>
      <trkpt lat="48.69274" lon="1.75806">
        <ele>163.39999389648</ele>
        <time>2012-01-12T09:51:13.000Z</time>
      </trkpt>
      <trkpt lat="48.69279" lon="1.75817">
        <ele>163.80000305176</ele>
        <time>2012-01-12T09:51:19.000Z</time>
      </trkpt>
      <trkpt lat="48.69289" lon="1.75818">
        <ele>164</ele>
        <time>2012-01-12T09:51:26.000Z</time>
      </trkpt>
      <trkpt lat="48.6929" lon="1.75818">
        <ele>164</ele>
        <time>2012-01-12T09:51:29.000Z</time>
      </trkpt>
      <trkpt lat="48.69292" lon="1.75818">
        <ele>164.19999694824</ele>
        <time>2012-01-12T09:51:34.000Z</time>
      </trkpt>
      <trkpt lat="48.69302" lon="1.75818">
        <ele>164.19999694824</ele>
        <time>2012-01-12T09:51:39.000Z</time>
      </trkpt>
      <trkpt lat="48.69314" lon="1.75819">
        <ele>164.60000610352</ele>
        <time>2012-01-12T09:51:46.000Z</time>
      </trkpt>
      <trkpt lat="48.69324" lon="1.75822">
        <ele>164.80000305176</ele>
        <time>2012-01-12T09:51:52.000Z</time>
      </trkpt>
      <trkpt lat="48.69331" lon="1.75821">
        <ele>164.80000305176</ele>
        <time>2012-01-12T09:51:56.000Z</time>
      </trkpt>
      <trkpt lat="48.69338" lon="1.75822">
        <ele>165</ele>
        <time>2012-01-12T09:52:00.000Z</time>
      </trkpt>
      <trkpt lat="48.69354" lon="1.75825">
        <ele>165.19999694824</ele>
        <time>2012-01-12T09:52:09.000Z</time>
      </trkpt>
      <trkpt lat="48.69363" lon="1.75829">
        <ele>165.39999389648</ele>
        <time>2012-01-12T09:52:15.000Z</time>
      </trkpt>
      <trkpt lat="48.69377" lon="1.7583">
        <ele>165.39999389648</ele>
        <time>2012-01-12T09:52:23.000Z</time>
      </trkpt>
      <trkpt lat="48.69389" lon="1.75834">
        <ele>165.80000305176</ele>
        <time>2012-01-12T09:52:31.000Z</time>
      </trkpt>
      <trkpt lat="48.69401" lon="1.75839">
        <ele>166</ele>
        <time>2012-01-12T09:52:38.000Z</time>
      </trkpt>
      <trkpt lat="48.69416" lon="1.75844">
        <ele>166.39999389648</ele>
        <time>2012-01-12T09:52:46.000Z</time>
      </trkpt>
      <trkpt lat="48.69426" lon="1.75849">
        <ele>166.39999389648</ele>
        <time>2012-01-12T09:52:52.000Z</time>
      </trkpt>
      <trkpt lat="48.69432" lon="1.7585">
        <ele>166.39999389648</ele>
        <time>2012-01-12T09:52:56.000Z</time>
      </trkpt>
      <trkpt lat="48.69447" lon="1.75853">
        <ele>166.19999694824</ele>
        <time>2012-01-12T09:53:06.000Z</time>
      </trkpt>
      <trkpt lat="48.69461" lon="1.75853">
        <ele>166.19999694824</ele>
        <time>2012-01-12T09:53:14.000Z</time>
      </trkpt>
      <trkpt lat="48.69471" lon="1.75855">
        <ele>166.19999694824</ele>
        <time>2012-01-12T09:53:21.000Z</time>
      </trkpt>
      <trkpt lat="48.69482" lon="1.75854">
        <ele>166</ele>
        <time>2012-01-12T09:53:27.000Z</time>
      </trkpt>
      <trkpt lat="48.69493" lon="1.75853">
        <ele>165.80000305176</ele>
        <time>2012-01-12T09:53:34.000Z</time>
      </trkpt>
      <trkpt lat="48.69506" lon="1.75853">
        <ele>165.80000305176</ele>
        <time>2012-01-12T09:53:42.000Z</time>
      </trkpt>
      <trkpt lat="48.69514" lon="1.75853">
        <ele>165.80000305176</ele>
        <time>2012-01-12T09:53:47.000Z</time>
      </trkpt>
      <trkpt lat="48.69524" lon="1.75852">
        <ele>166</ele>
        <time>2012-01-12T09:53:53.000Z</time>
      </trkpt>
      <trkpt lat="48.69532" lon="1.75853">
        <ele>166</ele>
        <time>2012-01-12T09:53:58.000Z</time>
      </trkpt>
      <trkpt lat="48.69541" lon="1.75853">
        <ele>166.19999694824</ele>
        <time>2012-01-12T09:54:04.000Z</time>
      </trkpt>
      <trkpt lat="48.69551" lon="1.75851">
        <ele>166.19999694824</ele>
        <time>2012-01-12T09:54:10.000Z</time>
      </trkpt>
      <trkpt lat="48.69562" lon="1.7585">
        <ele>166.19999694824</ele>
        <time>2012-01-12T09:54:16.000Z</time>
      </trkpt>
      <trkpt lat="48.69571" lon="1.7585">
        <ele>166.39999389648</ele>
        <time>2012-01-12T09:54:22.000Z</time>
      </trkpt>
      <trkpt lat="48.69583" lon="1.7585">
        <ele>166.60000610352</ele>
        <time>2012-01-12T09:54:28.000Z</time>
      </trkpt>
      <trkpt lat="48.69596" lon="1.75853">
        <ele>166</ele>
        <time>2012-01-12T09:54:35.000Z</time>
      </trkpt>
      <trkpt lat="48.6961" lon="1.75857">
        <ele>165.39999389648</ele>
        <time>2012-01-12T09:54:42.000Z</time>
      </trkpt>
      <trkpt lat="48.69621" lon="1.75861">
        <ele>165.19999694824</ele>
        <time>2012-01-12T09:54:48.000Z</time>
      </trkpt>
      <trkpt lat="48.6963" lon="1.75866">
        <ele>165</ele>
        <time>2012-01-12T09:54:54.000Z</time>
      </trkpt>
      <trkpt lat="48.69639" lon="1.75874">
        <ele>165</ele>
        <time>2012-01-12T09:55:01.000Z</time>
      </trkpt>
      <trkpt lat="48.69643" lon="1.75875">
        <ele>165</ele>
        <time>2012-01-12T09:55:04.000Z</time>
      </trkpt>
      <trkpt lat="48.69648" lon="1.75877">
        <ele>164.80000305176</ele>
        <time>2012-01-12T09:55:07.000Z</time>
      </trkpt>
      <trkpt lat="48.69657" lon="1.75892">
        <ele>165.60000610352</ele>
        <time>2012-01-12T09:55:15.000Z</time>
      </trkpt>
      <trkpt lat="48.69665" lon="1.75896">
        <ele>165.60000610352</ele>
        <time>2012-01-12T09:55:21.000Z</time>
      </trkpt>
      <trkpt lat="48.69677" lon="1.75902">
        <ele>165.80000305176</ele>
        <time>2012-01-12T09:55:29.000Z</time>
      </trkpt>
      <trkpt lat="48.69689" lon="1.75905">
        <ele>166</ele>
        <time>2012-01-12T09:55:35.000Z</time>
      </trkpt>
      <trkpt lat="48.69698" lon="1.75911">
        <ele>166.19999694824</ele>
        <time>2012-01-12T09:55:40.000Z</time>
      </trkpt>
      <trkpt lat="48.69708" lon="1.75919">
        <ele>166.60000610352</ele>
        <time>2012-01-12T09:55:47.000Z</time>
      </trkpt>
      <trkpt lat="48.6972" lon="1.75927">
        <ele>167</ele>
        <time>2012-01-12T09:55:55.000Z</time>
      </trkpt>
      <trkpt lat="48.69732" lon="1.75934">
        <ele>167.39999389648</ele>
        <time>2012-01-12T09:56:03.000Z</time>
      </trkpt>
      <trkpt lat="48.6974" lon="1.75936">
        <ele>167.39999389648</ele>
        <time>2012-01-12T09:56:09.000Z</time>
      </trkpt>
      <trkpt lat="48.69746" lon="1.75936">
        <ele>167.19999694824</ele>
        <time>2012-01-12T09:56:16.000Z</time>
      </trkpt>
      <trkpt lat="48.6975" lon="1.75936">
        <ele>167.19999694824</ele>
        <time>2012-01-12T09:56:20.000Z</time>
      </trkpt>
      <trkpt lat="48.69752" lon="1.75935">
        <ele>167</ele>
        <time>2012-01-12T09:56:26.000Z</time>
      </trkpt>
      <trkpt lat="48.69755" lon="1.75936">
        <ele>167</ele>
        <time>2012-01-12T09:56:29.000Z</time>
      </trkpt>
      <trkpt lat="48.69762" lon="1.75942">
        <ele>167.39999389648</ele>
        <time>2012-01-12T09:56:34.000Z</time>
      </trkpt>
      <trkpt lat="48.69774" lon="1.75951">
        <ele>167.60000610352</ele>
        <time>2012-01-12T09:56:43.000Z</time>
      </trkpt>
      <trkpt lat="48.69783" lon="1.7596">
        <ele>167.80000305176</ele>
        <time>2012-01-12T09:56:50.000Z</time>
      </trkpt>
      <trkpt lat="48.69793" lon="1.7597">
        <ele>167.80000305176</ele>
        <time>2012-01-12T09:56:57.000Z</time>
      </trkpt>
      <trkpt lat="48.698" lon="1.75974">
        <ele>167.80000305176</ele>
        <time>2012-01-12T09:57:03.000Z</time>
      </trkpt>
      <trkpt lat="48.69812" lon="1.75977">
        <ele>167.39999389648</ele>
        <time>2012-01-12T09:57:09.000Z</time>
      </trkpt>
      <trkpt lat="48.69814" lon="1.75978">
        <ele>167.39999389648</ele>
        <time>2012-01-12T09:57:10.000Z</time>
      </trkpt>
      <trkpt lat="48.6982" lon="1.75982">
        <ele>167.19999694824</ele>
        <time>2012-01-12T09:57:15.000Z</time>
      </trkpt>
      <trkpt lat="48.69821" lon="1.75984">
        <ele>167.19999694824</ele>
        <time>2012-01-12T09:57:17.000Z</time>
      </trkpt>
      <trkpt lat="48.69821" lon="1.75985">
        <ele>167.39999389648</ele>
        <time>2012-01-12T09:57:20.000Z</time>
      </trkpt>
      <trkpt lat="48.69824" lon="1.75982">
        <ele>167.19999694824</ele>
        <time>2012-01-12T09:58:04.000Z</time>
      </trkpt>
      <trkpt lat="48.69826" lon="1.75983">
        <ele>167</ele>
        <time>2012-01-12T09:58:07.000Z</time>
      </trkpt>
      <trkpt lat="48.69832" lon="1.75986">
        <ele>166.80000305176</ele>
        <time>2012-01-12T09:58:49.000Z</time>
      </trkpt>
      <trkpt lat="48.69841" lon="1.75995">
        <ele>166.80000305176</ele>
        <time>2012-01-12T09:58:56.000Z</time>
      </trkpt>
      <trkpt lat="48.69842" lon="1.75997">
        <ele>166.80000305176</ele>
        <time>2012-01-12T09:58:59.000Z</time>
      </trkpt>
      <trkpt lat="48.69848" lon="1.76003">
        <ele>167</ele>
        <time>2012-01-12T09:59:05.000Z</time>
      </trkpt>
      <trkpt lat="48.69858" lon="1.76011">
        <ele>167.19999694824</ele>
        <time>2012-01-12T09:59:11.000Z</time>
      </trkpt>
      <trkpt lat="48.6987" lon="1.76019">
        <ele>167.19999694824</ele>
        <time>2012-01-12T09:59:18.000Z</time>
      </trkpt>
      <trkpt lat="48.6988" lon="1.76027">
        <ele>167.19999694824</ele>
        <time>2012-01-12T09:59:26.000Z</time>
      </trkpt>
      <trkpt lat="48.69891" lon="1.76038">
        <ele>167</ele>
        <time>2012-01-12T09:59:34.000Z</time>
      </trkpt>
      <trkpt lat="48.69898" lon="1.76046">
        <ele>166.80000305176</ele>
        <time>2012-01-12T09:59:39.000Z</time>
      </trkpt>
      <trkpt lat="48.69907" lon="1.7606">
        <ele>166.60000610352</ele>
        <time>2012-01-12T09:59:47.000Z</time>
      </trkpt>
      <trkpt lat="48.69916" lon="1.76067">
        <ele>166</ele>
        <time>2012-01-12T09:59:53.000Z</time>
      </trkpt>
      <trkpt lat="48.69927" lon="1.76076">
        <ele>166</ele>
        <time>2012-01-12T10:00:00.000Z</time>
      </trkpt>
      <trkpt lat="48.69935" lon="1.76084">
        <ele>165.80000305176</ele>
        <time>2012-01-12T10:00:06.000Z</time>
      </trkpt>
      <trkpt lat="48.69942" lon="1.76093">
        <ele>166</ele>
        <time>2012-01-12T10:00:12.000Z</time>
      </trkpt>
      <trkpt lat="48.69952" lon="1.76106">
        <ele>166.39999389648</ele>
        <time>2012-01-12T10:00:20.000Z</time>
      </trkpt>
      <trkpt lat="48.69962" lon="1.76115">
        <ele>166.39999389648</ele>
        <time>2012-01-12T10:00:27.000Z</time>
      </trkpt>
      <trkpt lat="48.69964" lon="1.76115">
        <ele>166.39999389648</ele>
        <time>2012-01-12T10:00:28.000Z</time>
      </trkpt>
      <trkpt lat="48.69972" lon="1.76129">
        <ele>166.39999389648</ele>
        <time>2012-01-12T10:00:35.000Z</time>
      </trkpt>
      <trkpt lat="48.69977" lon="1.76139">
        <ele>166.60000610352</ele>
        <time>2012-01-12T10:00:40.000Z</time>
      </trkpt>
      <trkpt lat="48.69984" lon="1.76155">
        <ele>166.60000610352</ele>
        <time>2012-01-12T10:00:48.000Z</time>
      </trkpt>
      <trkpt lat="48.69988" lon="1.76164">
        <ele>166.60000610352</ele>
        <time>2012-01-12T10:00:53.000Z</time>
      </trkpt>
      <trkpt lat="48.69997" lon="1.76176">
        <ele>166.39999389648</ele>
        <time>2012-01-12T10:00:59.000Z</time>
      </trkpt>
      <trkpt lat="48.70004" lon="1.76182">
        <ele>166.39999389648</ele>
        <time>2012-01-12T10:01:05.000Z</time>
      </trkpt>
      <trkpt lat="48.70011" lon="1.76189">
        <ele>166.60000610352</ele>
        <time>2012-01-12T10:01:11.000Z</time>
      </trkpt>
      <trkpt lat="48.70018" lon="1.76195">
        <ele>166.60000610352</ele>
        <time>2012-01-12T10:01:16.000Z</time>
      </trkpt>
      <trkpt lat="48.70031" lon="1.76205">
        <ele>167</ele>
        <time>2012-01-12T10:01:24.000Z</time>
      </trkpt>
      <trkpt lat="48.7004" lon="1.76211">
        <ele>167</ele>
        <time>2012-01-12T10:01:30.000Z</time>
      </trkpt>
      <trkpt lat="48.70051" lon="1.76218">
        <ele>167.19999694824</ele>
        <time>2012-01-12T10:01:37.000Z</time>
      </trkpt>
      <trkpt lat="48.70062" lon="1.76227">
        <ele>167.39999389648</ele>
        <time>2012-01-12T10:01:45.000Z</time>
      </trkpt>
      <trkpt lat="48.70073" lon="1.76234">
        <ele>167.60000610352</ele>
        <time>2012-01-12T10:01:52.000Z</time>
      </trkpt>
      <trkpt lat="48.70084" lon="1.76248">
        <ele>168</ele>
        <time>2012-01-12T10:02:01.000Z</time>
      </trkpt>
      <trkpt lat="48.70085" lon="1.76248">
        <ele>168</ele>
        <time>2012-01-12T10:02:04.000Z</time>
      </trkpt>
      <trkpt lat="48.70091" lon="1.76258">
        <ele>168.19999694824</ele>
        <time>2012-01-12T10:02:15.000Z</time>
      </trkpt>
      <trkpt lat="48.70099" lon="1.76276">
        <ele>168.39999389648</ele>
        <time>2012-01-12T10:02:23.000Z</time>
      </trkpt>
      <trkpt lat="48.70106" lon="1.76298">
        <ele>168.80000305176</ele>
        <time>2012-01-12T10:02:32.000Z</time>
      </trkpt>
      <trkpt lat="48.70111" lon="1.76306">
        <ele>168.80000305176</ele>
        <time>2012-01-12T10:02:37.000Z</time>
      </trkpt>
      <trkpt lat="48.70122" lon="1.76315">
        <ele>169.19999694824</ele>
        <time>2012-01-12T10:02:43.000Z</time>
      </trkpt>
      <trkpt lat="48.70124" lon="1.76316">
        <ele>169.19999694824</ele>
        <time>2012-01-12T10:02:45.000Z</time>
      </trkpt>
      <trkpt lat="48.70132" lon="1.76319">
        <ele>169.39999389648</ele>
        <time>2012-01-12T10:02:51.000Z</time>
      </trkpt>
      <trkpt lat="48.70133" lon="1.7632">
        <ele>169.39999389648</ele>
        <time>2012-01-12T10:02:52.000Z</time>
      </trkpt>
      <trkpt lat="48.70136" lon="1.76323">
        <ele>169.39999389648</ele>
        <time>2012-01-12T10:02:54.000Z</time>
      </trkpt>
      <trkpt lat="48.70144" lon="1.76325">
        <ele>169.60000610352</ele>
        <time>2012-01-12T10:03:00.000Z</time>
      </trkpt>
      <trkpt lat="48.70146" lon="1.76325">
        <ele>169.60000610352</ele>
        <time>2012-01-12T10:03:01.000Z</time>
      </trkpt>
      <trkpt lat="48.70149" lon="1.76328">
        <ele>169.60000610352</ele>
        <time>2012-01-12T10:03:03.000Z</time>
      </trkpt>
      <trkpt lat="48.70158" lon="1.7633">
        <ele>169.80000305176</ele>
        <time>2012-01-12T10:03:10.000Z</time>
      </trkpt>
      <trkpt lat="48.70169" lon="1.76335">
        <ele>170</ele>
        <time>2012-01-12T10:03:16.000Z</time>
      </trkpt>
      <trkpt lat="48.70172" lon="1.76337">
        <ele>170.19999694824</ele>
        <time>2012-01-12T10:03:18.000Z</time>
      </trkpt>
      <trkpt lat="48.70181" lon="1.76341">
        <ele>170.60000610352</ele>
        <time>2012-01-12T10:03:23.000Z</time>
      </trkpt>
      <trkpt lat="48.70193" lon="1.76348">
        <ele>171</ele>
        <time>2012-01-12T10:03:31.000Z</time>
      </trkpt>
      <trkpt lat="48.70196" lon="1.76349">
        <ele>171</ele>
        <time>2012-01-12T10:03:33.000Z</time>
      </trkpt>
      <trkpt lat="48.70204" lon="1.76355">
        <ele>171.19999694824</ele>
        <time>2012-01-12T10:03:39.000Z</time>
      </trkpt>
      <trkpt lat="48.70212" lon="1.76363">
        <ele>171.60000610352</ele>
        <time>2012-01-12T10:03:44.000Z</time>
      </trkpt>
      <trkpt lat="48.70216" lon="1.76366">
        <ele>171.80000305176</ele>
        <time>2012-01-12T10:03:47.000Z</time>
      </trkpt>
      <trkpt lat="48.7023" lon="1.76377">
        <ele>172.19999694824</ele>
        <time>2012-01-12T10:03:55.000Z</time>
      </trkpt>
      <trkpt lat="48.7024" lon="1.76388">
        <ele>172.39999389648</ele>
        <time>2012-01-12T10:04:01.000Z</time>
      </trkpt>
      <trkpt lat="48.70245" lon="1.76391">
        <ele>172.60000610352</ele>
        <time>2012-01-12T10:04:04.000Z</time>
      </trkpt>
      <trkpt lat="48.70253" lon="1.764">
        <ele>172.80000305176</ele>
        <time>2012-01-12T10:04:10.000Z</time>
      </trkpt>
      <trkpt lat="48.70261" lon="1.76408">
        <ele>173.19999694824</ele>
        <time>2012-01-12T10:04:16.000Z</time>
      </trkpt>
      <trkpt lat="48.70269" lon="1.76414">
        <ele>173.60000610352</ele>
        <time>2012-01-12T10:04:22.000Z</time>
      </trkpt>
      <trkpt lat="48.70275" lon="1.7642">
        <ele>174</ele>
        <time>2012-01-12T10:04:28.000Z</time>
      </trkpt>
      <trkpt lat="48.70283" lon="1.76424">
        <ele>174.39999389648</ele>
        <time>2012-01-12T10:04:33.000Z</time>
      </trkpt>
      <trkpt lat="48.70293" lon="1.76427">
        <ele>174.80000305176</ele>
        <time>2012-01-12T10:04:39.000Z</time>
      </trkpt>
      <trkpt lat="48.70304" lon="1.76428">
        <ele>175.19999694824</ele>
        <time>2012-01-12T10:04:47.000Z</time>
      </trkpt>
      <trkpt lat="48.70309" lon="1.7643">
        <ele>175.39999389648</ele>
        <time>2012-01-12T10:04:51.000Z</time>
      </trkpt>
      <trkpt lat="48.70313" lon="1.76426">
        <ele>175.60000610352</ele>
        <time>2012-01-12T10:04:55.000Z</time>
      </trkpt>
      <trkpt lat="48.70313" lon="1.76426">
        <ele>175.60000610352</ele>
        <time>2012-01-12T10:04:58.000Z</time>
      </trkpt>
      <trkpt lat="48.70319" lon="1.7642">
        <ele>175.60000610352</ele>
        <time>2012-01-12T10:05:11.000Z</time>
      </trkpt>
      <trkpt lat="48.70329" lon="1.76413">
        <ele>175.60000610352</ele>
        <time>2012-01-12T10:05:17.000Z</time>
      </trkpt>
      <trkpt lat="48.70337" lon="1.76408">
        <ele>175.60000610352</ele>
        <time>2012-01-12T10:05:22.000Z</time>
      </trkpt>
      <trkpt lat="48.70349" lon="1.76406">
        <ele>175.80000305176</ele>
        <time>2012-01-12T10:05:29.000Z</time>
      </trkpt>
      <trkpt lat="48.70359" lon="1.76406">
        <ele>176</ele>
        <time>2012-01-12T10:05:35.000Z</time>
      </trkpt>
      <trkpt lat="48.70367" lon="1.76408">
        <ele>176.39999389648</ele>
        <time>2012-01-12T10:05:40.000Z</time>
      </trkpt>
      <trkpt lat="48.70371" lon="1.7641">
        <ele>176.60000610352</ele>
        <time>2012-01-12T10:05:43.000Z</time>
      </trkpt>
      <trkpt lat="48.70381" lon="1.76408">
        <ele>176.80000305176</ele>
        <time>2012-01-12T10:05:49.000Z</time>
      </trkpt>
      <trkpt lat="48.70391" lon="1.76401">
        <ele>176.60000610352</ele>
        <time>2012-01-12T10:05:56.000Z</time>
      </trkpt>
      <trkpt lat="48.70399" lon="1.76401">
        <ele>176.80000305176</ele>
        <time>2012-01-12T10:06:01.000Z</time>
      </trkpt>
      <trkpt lat="48.70408" lon="1.764">
        <ele>177</ele>
        <time>2012-01-12T10:06:07.000Z</time>
      </trkpt>
      <trkpt lat="48.70417" lon="1.76393">
        <ele>176.80000305176</ele>
        <time>2012-01-12T10:06:13.000Z</time>
      </trkpt>
      <trkpt lat="48.70426" lon="1.76388">
        <ele>176.19999694824</ele>
        <time>2012-01-12T10:06:18.000Z</time>
      </trkpt>
      <trkpt lat="48.70435" lon="1.76385">
        <ele>175.80000305176</ele>
        <time>2012-01-12T10:06:23.000Z</time>
      </trkpt>
      <trkpt lat="48.70442" lon="1.76382">
        <ele>175.39999389648</ele>
        <time>2012-01-12T10:06:27.000Z</time>
      </trkpt>
      <trkpt lat="48.70449" lon="1.76375">
        <ele>174.80000305176</ele>
        <time>2012-01-12T10:06:33.000Z</time>
      </trkpt>
      <trkpt lat="48.7045" lon="1.76365">
        <ele>174.39999389648</ele>
        <time>2012-01-12T10:06:38.000Z</time>
      </trkpt>
      <trkpt lat="48.70449" lon="1.76359">
        <ele>174</ele>
        <time>2012-01-12T10:06:43.000Z</time>
      </trkpt>
      <trkpt lat="48.70448" lon="1.76345">
        <ele>173.39999389648</ele>
        <time>2012-01-12T10:06:49.000Z</time>
      </trkpt>
      <trkpt lat="48.70449" lon="1.76328">
        <ele>172.80000305176</ele>
        <time>2012-01-12T10:06:53.000Z</time>
      </trkpt>
      <trkpt lat="48.70448" lon="1.76296">
        <ele>172.60000610352</ele>
        <time>2012-01-12T10:06:59.000Z</time>
      </trkpt>
      <trkpt lat="48.70455" lon="1.76267">
        <ele>172.19999694824</ele>
        <time>2012-01-12T10:07:04.000Z</time>
      </trkpt>
      <trkpt lat="48.70459" lon="1.76241">
        <ele>172.19999694824</ele>
        <time>2012-01-12T10:07:08.000Z</time>
      </trkpt>
      <trkpt lat="48.7046" lon="1.76236">
        <ele>172.19999694824</ele>
        <time>2012-01-12T10:07:09.000Z</time>
      </trkpt>
      <trkpt lat="48.70457" lon="1.76214">
        <ele>173</ele>
        <time>2012-01-12T10:07:13.000Z</time>
      </trkpt>
      <trkpt lat="48.70452" lon="1.76179">
        <ele>174</ele>
        <time>2012-01-12T10:07:19.000Z</time>
      </trkpt>
      <trkpt lat="48.70451" lon="1.76165">
        <ele>174.39999389648</ele>
        <time>2012-01-12T10:07:21.000Z</time>
      </trkpt>
      <trkpt lat="48.70453" lon="1.76147">
        <ele>174.39999389648</ele>
        <time>2012-01-12T10:07:24.000Z</time>
      </trkpt>
      <trkpt lat="48.70458" lon="1.76131">
        <ele>174.39999389648</ele>
        <time>2012-01-12T10:07:27.000Z</time>
      </trkpt>
      <trkpt lat="48.70463" lon="1.76103">
        <ele>174.60000610352</ele>
        <time>2012-01-12T10:07:31.000Z</time>
      </trkpt>
      <trkpt lat="48.70468" lon="1.7608">
        <ele>174.80000305176</ele>
        <time>2012-01-12T10:07:34.000Z</time>
      </trkpt>
      <trkpt lat="48.70474" lon="1.76046">
        <ele>176.39999389648</ele>
        <time>2012-01-12T10:07:39.000Z</time>
      </trkpt>
      <trkpt lat="48.70476" lon="1.76016">
        <ele>178</ele>
        <time>2012-01-12T10:07:43.000Z</time>
      </trkpt>
      <trkpt lat="48.70477" lon="1.75995">
        <ele>179</ele>
        <time>2012-01-12T10:07:46.000Z</time>
      </trkpt>
      <trkpt lat="48.70479" lon="1.75985">
        <ele>179.39999389648</ele>
        <time>2012-01-12T10:07:48.000Z</time>
      </trkpt>
      <trkpt lat="48.70482" lon="1.75967">
        <ele>180</ele>
        <time>2012-01-12T10:07:53.000Z</time>
      </trkpt>
      <trkpt lat="48.7049" lon="1.75956">
        <ele>180.39999389648</ele>
        <time>2012-01-12T10:08:00.000Z</time>
      </trkpt>
      <trkpt lat="48.70498" lon="1.75943">
        <ele>180.80000305176</ele>
        <time>2012-01-12T10:08:08.000Z</time>
      </trkpt>
      <trkpt lat="48.705" lon="1.75942">
        <ele>180.80000305176</ele>
        <time>2012-01-12T10:08:09.000Z</time>
      </trkpt>
      <trkpt lat="48.70509" lon="1.75934">
        <ele>180.60000610352</ele>
        <time>2012-01-12T10:08:16.000Z</time>
      </trkpt>
      <trkpt lat="48.70513" lon="1.75927">
        <ele>180.60000610352</ele>
        <time>2012-01-12T10:08:19.000Z</time>
      </trkpt>
      <trkpt lat="48.70521" lon="1.75916">
        <ele>180.39999389648</ele>
        <time>2012-01-12T10:08:25.000Z</time>
      </trkpt>
      <trkpt lat="48.70531" lon="1.75907">
        <ele>180</ele>
        <time>2012-01-12T10:08:31.000Z</time>
      </trkpt>
      <trkpt lat="48.70534" lon="1.75902">
        <ele>179.80000305176</ele>
        <time>2012-01-12T10:08:35.000Z</time>
      </trkpt>
      <trkpt lat="48.7054" lon="1.75888">
        <ele>179.39999389648</ele>
        <time>2012-01-12T10:08:43.000Z</time>
      </trkpt>
      <trkpt lat="48.70547" lon="1.75874">
        <ele>179</ele>
        <time>2012-01-12T10:08:49.000Z</time>
      </trkpt>
      <trkpt lat="48.70548" lon="1.7587">
        <ele>179</ele>
        <time>2012-01-12T10:08:51.000Z</time>
      </trkpt>
      <trkpt lat="48.70557" lon="1.75859">
        <ele>178.39999389648</ele>
        <time>2012-01-12T10:08:58.000Z</time>
      </trkpt>
      <trkpt lat="48.70563" lon="1.75846">
        <ele>177.80000305176</ele>
        <time>2012-01-12T10:09:04.000Z</time>
      </trkpt>
      <trkpt lat="48.70568" lon="1.75837">
        <ele>177.39999389648</ele>
        <time>2012-01-12T10:09:09.000Z</time>
      </trkpt>
      <trkpt lat="48.70575" lon="1.75825">
        <ele>177.19999694824</ele>
        <time>2012-01-12T10:09:15.000Z</time>
      </trkpt>
      <trkpt lat="48.70582" lon="1.75812">
        <ele>176.80000305176</ele>
        <time>2012-01-12T10:09:22.000Z</time>
      </trkpt>
      <trkpt lat="48.70584" lon="1.75799">
        <ele>177.19999694824</ele>
        <time>2012-01-12T10:09:27.000Z</time>
      </trkpt>
      <trkpt lat="48.70592" lon="1.75784">
        <ele>177.19999694824</ele>
        <time>2012-01-12T10:09:35.000Z</time>
      </trkpt>
      <trkpt lat="48.70602" lon="1.75766">
        <ele>177.39999389648</ele>
        <time>2012-01-12T10:09:45.000Z</time>
      </trkpt>
      <trkpt lat="48.70608" lon="1.75754">
        <ele>177.39999389648</ele>
        <time>2012-01-12T10:09:52.000Z</time>
      </trkpt>
      <trkpt lat="48.70608" lon="1.75752">
        <ele>177.39999389648</ele>
        <time>2012-01-12T10:09:53.000Z</time>
      </trkpt>
      <trkpt lat="48.70614" lon="1.75739">
        <ele>177.60000610352</ele>
        <time>2012-01-12T10:10:00.000Z</time>
      </trkpt>
      <trkpt lat="48.70623" lon="1.75725">
        <ele>177.60000610352</ele>
        <time>2012-01-12T10:10:09.000Z</time>
      </trkpt>
      <trkpt lat="48.70626" lon="1.75721">
        <ele>177.60000610352</ele>
        <time>2012-01-12T10:10:12.000Z</time>
      </trkpt>
      <trkpt lat="48.70627" lon="1.75715">
        <ele>177.80000305176</ele>
        <time>2012-01-12T10:10:18.000Z</time>
      </trkpt>
      <trkpt lat="48.70634" lon="1.757">
        <ele>177.80000305176</ele>
        <time>2012-01-12T10:11:05.000Z</time>
      </trkpt>
      <trkpt lat="48.70636" lon="1.7569">
        <ele>178</ele>
        <time>2012-01-12T10:11:10.000Z</time>
      </trkpt>
      <trkpt lat="48.70637" lon="1.75682">
        <ele>178</ele>
        <time>2012-01-12T10:11:15.000Z</time>
      </trkpt>
      <trkpt lat="48.70637" lon="1.75671">
        <ele>178.39999389648</ele>
        <time>2012-01-12T10:11:21.000Z</time>
      </trkpt>
      <trkpt lat="48.70637" lon="1.75666">
        <ele>178.60000610352</ele>
        <time>2012-01-12T10:11:24.000Z</time>
      </trkpt>
      <trkpt lat="48.70637" lon="1.75663">
        <ele>178.60000610352</ele>
        <time>2012-01-12T10:11:26.000Z</time>
      </trkpt>
      <trkpt lat="48.70635" lon="1.75653">
        <ele>178.60000610352</ele>
        <time>2012-01-12T10:11:32.000Z</time>
      </trkpt>
      <trkpt lat="48.70635" lon="1.7564">
        <ele>178.60000610352</ele>
        <time>2012-01-12T10:11:38.000Z</time>
      </trkpt>
      <trkpt lat="48.70636" lon="1.75638">
        <ele>178.39999389648</ele>
        <time>2012-01-12T10:11:39.000Z</time>
      </trkpt>
      <trkpt lat="48.7064" lon="1.7562">
        <ele>177.80000305176</ele>
        <time>2012-01-12T10:11:48.000Z</time>
      </trkpt>
      <trkpt lat="48.70646" lon="1.75609">
        <ele>177</ele>
        <time>2012-01-12T10:11:55.000Z</time>
      </trkpt>
      <trkpt lat="48.70652" lon="1.756">
        <ele>176.39999389648</ele>
        <time>2012-01-12T10:12:01.000Z</time>
      </trkpt>
      <trkpt lat="48.70661" lon="1.75586">
        <ele>175.60000610352</ele>
        <time>2012-01-12T10:12:10.000Z</time>
      </trkpt>
      <trkpt lat="48.70661" lon="1.7558">
        <ele>175.39999389648</ele>
        <time>2012-01-12T10:12:15.000Z</time>
      </trkpt>
      <trkpt lat="48.70667" lon="1.75575">
        <ele>174.80000305176</ele>
        <time>2012-01-12T10:12:22.000Z</time>
      </trkpt>
      <trkpt lat="48.70671" lon="1.75567">
        <ele>174.39999389648</ele>
        <time>2012-01-12T10:12:26.000Z</time>
      </trkpt>
      <trkpt lat="48.70674" lon="1.75555">
        <ele>174</ele>
        <time>2012-01-12T10:12:32.000Z</time>
      </trkpt>
      <trkpt lat="48.70681" lon="1.75538">
        <ele>173.39999389648</ele>
        <time>2012-01-12T10:12:42.000Z</time>
      </trkpt>
      <trkpt lat="48.70688" lon="1.75525">
        <ele>173</ele>
        <time>2012-01-12T10:12:50.000Z</time>
      </trkpt>
      <trkpt lat="48.7069" lon="1.75521">
        <ele>172.80000305176</ele>
        <time>2012-01-12T10:12:54.000Z</time>
      </trkpt>
      <trkpt lat="48.70691" lon="1.75517">
        <ele>172.80000305176</ele>
        <time>2012-01-12T10:12:57.000Z</time>
      </trkpt>
      <trkpt lat="48.70696" lon="1.75505">
        <ele>172.39999389648</ele>
        <time>2012-01-12T10:13:05.000Z</time>
      </trkpt>
      <trkpt lat="48.707" lon="1.75493">
        <ele>172.19999694824</ele>
        <time>2012-01-12T10:13:13.000Z</time>
      </trkpt>
      <trkpt lat="48.70702" lon="1.75489">
        <ele>172</ele>
        <time>2012-01-12T10:13:16.000Z</time>
      </trkpt>
      <trkpt lat="48.707" lon="1.75484">
        <ele>172</ele>
        <time>2012-01-12T10:13:21.000Z</time>
      </trkpt>
      <trkpt lat="48.70698" lon="1.75471">
        <ele>172</ele>
        <time>2012-01-12T10:13:48.000Z</time>
      </trkpt>
      <trkpt lat="48.70695" lon="1.75462">
        <ele>171.80000305176</ele>
        <time>2012-01-12T10:13:53.000Z</time>
      </trkpt>
      <trkpt lat="48.70691" lon="1.7546">
        <ele>171.80000305176</ele>
        <time>2012-01-12T10:13:59.000Z</time>
      </trkpt>
      <trkpt lat="48.70683" lon="1.75447">
        <ele>171.80000305176</ele>
        <time>2012-01-12T10:14:31.000Z</time>
      </trkpt>
      <trkpt lat="48.7068" lon="1.75443">
        <ele>171.60000610352</ele>
        <time>2012-01-12T10:14:34.000Z</time>
      </trkpt>
      <trkpt lat="48.70675" lon="1.75434">
        <ele>171.39999389648</ele>
        <time>2012-01-12T10:14:41.000Z</time>
      </trkpt>
      <trkpt lat="48.70674" lon="1.75432">
        <ele>171.39999389648</ele>
        <time>2012-01-12T10:14:42.000Z</time>
      </trkpt>
      <trkpt lat="48.70668" lon="1.75426">
        <ele>171.19999694824</ele>
        <time>2012-01-12T10:14:46.000Z</time>
      </trkpt>
      <trkpt lat="48.70664" lon="1.75429">
        <ele>171.39999389648</ele>
        <time>2012-01-12T10:14:50.000Z</time>
      </trkpt>
      <trkpt lat="48.70656" lon="1.75433">
        <ele>171.60000610352</ele>
        <time>2012-01-12T10:14:57.000Z</time>
      </trkpt>
      <trkpt lat="48.70654" lon="1.75437">
        <ele>171.60000610352</ele>
        <time>2012-01-12T10:15:01.000Z</time>
      </trkpt>
      <trkpt lat="48.70652" lon="1.75439">
        <ele>171.80000305176</ele>
        <time>2012-01-12T10:15:07.000Z</time>
      </trkpt>
      <trkpt lat="48.70652" lon="1.75438">
        <ele>171.60000610352</ele>
        <time>2012-01-12T10:15:09.000Z</time>
      </trkpt>
    </trkseg>
  </trk>
</gpx>